M I D A S
Marine Information and Data Acquisition System
Tripno 762 of the Zeeleeuw from 2004-08-16 06:43:36 to 2004-08-16 14:54:04
Back to CruiseResearch ActivitiesStationsMapUnderway DataData graphs

EquipmentUnitsComment
TimeDGPSUTC
LatitudeDGPSDM.mWGS84
LongitudeDGPSDM.mWGS84
TemperatureSBE03/SBE38deg celciusITS90
ConductivitySBE21S/mITS90
SalinitySBE21 Practical Salinity Units
ChlorophylAChelsea fluorimeterg/lCalibrated in Aceton
Missing or incorrect values are displayed as -999
Sea surface data collected by the RV Zeeleeuw from 2004-08-16 06:43:36 to 2004-08-16 14:54:04
                                                                                    Next 1000 lines
Time Latitude Longitude Temperature Conductivity Salinity ChlorophylA
2004-08-16 06:43:47 51°13.595 2°56.115 22.176475 0.01391 0.071864 -0.781249
2004-08-16 06:43:53 51°13.595 2°56.115 22.178319 0.01391 0.071865 -0.814958
2004-08-16 06:43:57 51°13.595 2°56.115 22.179771 0.01391 0.071865 -0.74754
2004-08-16 06:44:00 51°13.595 2°56.115 22.181851 0.01391 0.071866 -0.781249
2004-08-16 06:44:05 51°13.595 2°56.115 22.183931 0.01391 0.071866 -0.781249
2004-08-16 06:44:12 51°13.595 2°56.115 22.185775 0.01391 0.071867 -0.814958
2004-08-16 06:44:17 51°13.595 2°56.115 22.185775 0.01391 0.071867 -0.814958
2004-08-16 06:44:21 51°13.595 2°56.115 22.186795 0.01391 0.071867 -0.814958
2004-08-16 06:44:28 51°13.595 2°56.115 22.190679 0.01391 0.071866 -0.781249
2004-08-16 06:44:31 51°13.595 2°56.115 22.191542 0.01391 0.071867 -0.814958
2004-08-16 06:44:37 51°13.595 2°56.115 22.191385 0.01391 0.071867 -0.781249
2004-08-16 06:44:41 51°13.595 2°56.114 22.191935 0.01391 0.071867 -0.74754
2004-08-16 06:44:47 51°13.595 2°56.115 22.191935 0.01391 0.071867 -0.74754
2004-08-16 06:44:52 51°13.596 2°56.115 22.191307 0.01391 0.071868 -0.781249
2004-08-16 06:44:56 51°13.596 2°56.115 22.183774 0.01391 0.071869 -0.781249
2004-08-16 06:45:01 51°13.595 2°56.115 22.185539 0.01391 0.071869 -0.814958
2004-08-16 06:45:08 51°13.595 2°56.115 22.188011 0.01391 0.071868 -0.781249
2004-08-16 06:45:12 51°13.595 2°56.115 22.188757 0.01391 0.071869 -0.781249
2004-08-16 06:45:16 51°13.595 2°56.115 22.188757 0.01391 0.071869 -0.781249
2004-08-16 06:45:21 51°13.595 2°56.115 22.19013 0.01391 0.071869 -0.781249
2004-08-16 06:45:24 51°13.595 2°56.115 22.191072 0.01391 0.071869 -0.781249
2004-08-16 06:45:32 51°13.595 2°56.115 22.200448 0.01391 0.07187 -0.781249
2004-08-16 06:45:41 51°13.595 2°56.115 22.19884 0.01391 0.071869 -0.781249
2004-08-16 06:45:48 51°13.595 2°56.115 22.19884 0.01391 0.071869 -0.781249
2004-08-16 06:45:52 51°13.595 2°56.115 22.203468 0.01391 0.071871 -0.814958
2004-08-16 06:45:58 51°13.595 2°56.115 22.205469 0.01391 0.07187 -0.781249
2004-08-16 06:46:01 51°13.595 2°56.115 22.205626 0.01391 0.07187 -0.781249
2004-08-16 06:46:06 51°13.595 2°56.115 22.206214 0.01391 0.07187 -0.74754
2004-08-16 06:46:13 51°13.594 2°56.115 22.205548 0.01391 0.071871 -0.781249
2004-08-16 06:46:16 51°13.594 2°56.115 22.205548 0.01391 0.071871 -0.781249
2004-08-16 06:46:20 51°13.594 2°56.115 22.198761 0.01391 0.07187 -0.781249
2004-08-16 06:46:28 51°13.595 2°56.114 22.184009 0.01391 0.071871 -0.814958
2004-08-16 06:46:30 51°13.595 2°56.114 22.169921 0.01391 0.071871 -0.781249
2004-08-16 06:46:36 51°13.596 2°56.112 22.198996 0.01391 0.071871 -0.814958
2004-08-16 06:46:40 51°13.596 2°56.11 22.178084 0.01391 0.071871 -0.781249
2004-08-16 06:46:44 51°13.597 2°56.108 22.178084 0.01391 0.071871 -0.781249
2004-08-16 06:46:53 51°13.6 2°56.101 22.183303 0.01391 0.071872 -0.781249
2004-08-16 06:47:00 51°13.602 2°56.094 22.183303 0.01391 0.071872 -0.781249
2004-08-16 06:47:05 51°13.604 2°56.088 22.201782 0.01391 0.071872 -0.74754
2004-08-16 06:47:08 51°13.605 2°56.084 22.184166 0.01391 0.071873 -0.781249
2004-08-16 06:47:15 51°13.608 2°56.075 22.192445 0.013806 0.071374 -0.781249
2004-08-16 06:47:20 51°13.61 2°56.068 22.193229 0.01391 0.071873 -0.781249
2004-08-16 06:47:25 51°13.613 2°56.06 22.193465 0.01391 0.071873 -0.781249
2004-08-16 06:47:28 51°13.614 2°56.055 22.193465 0.01391 0.071873 -0.781249
2004-08-16 06:47:33 51°13.617 2°56.048 22.196682 0.013806 0.071375 -0.814958
2004-08-16 06:47:40 51°13.621 2°56.036 22.198133 0.01391 0.071873 -0.781249
2004-08-16 06:47:45 51°13.623 2°56.028 22.087576 0.01391 0.071873 -0.005933
2004-08-16 06:47:48 51°13.625 2°56.023 21.666394 0.151253 0.803521 -0.646411
2004-08-16 06:47:55 51°13.628 2°56.012 21.481104 0.090615 0.47242 -0.680121
2004-08-16 06:47:59 51°13.629 2°56.006 21.481104 0.090615 0.47242 -0.680121
2004-08-16 06:48:04 51°13.631 2°56 21.395697 3.817643 25.858251 1.106477
2004-08-16 06:48:09 51°13.632 2°55.996 21.369984 4.117978 28.11968 0.533418
2004-08-16 06:48:12 51°13.632 2°55.995 21.354146 3.653769 24.701997 1.072768
2004-08-16 06:48:18 51°13.633 2°55.993 21.327147 3.249258 21.779851 1.578409
2004-08-16 06:48:24 51°13.634 2°55.991 21.32806 3.037734 20.281288 2.252597
2004-08-16 06:48:29 51°13.635 2°55.988 21.32806 3.037734 20.281288 2.252597
2004-08-16 06:48:32 51°13.635 2°55.986 21.318012 2.945106 19.635285 2.65711
2004-08-16 06:48:39 51°13.637 2°55.982 21.313167 2.881854 19.196068 2.960494
2004-08-16 06:48:41 51°13.637 2°55.98 21.30125 2.861544 19.062854 3.162751
2004-08-16 06:48:48 51°13.638 2°55.977 21.310307 2.830922 18.851061 3.297589
2004-08-16 06:48:59 51°13.638 2°55.979 21.279317 2.831343 18.860156 3.263879
2004-08-16 06:49:04 51°13.638 2°55.98 21.257179 2.8063 18.683178 3.297589
2004-08-16 06:49:09 51°13.638 2°55.98 21.247359 2.79704 18.619321 3.331298
2004-08-16 06:49:13 51°13.638 2°55.979 21.23897 2.783152 18.520141 3.398717
2004-08-16 06:49:20 51°13.64 2°55.976 21.238056 2.794094 18.602526 3.432426
2004-08-16 06:49:25 51°13.641 2°55.973 21.227041 2.833027 18.895392 3.331298
2004-08-16 06:49:29 51°13.642 2°55.969 21.227041 2.833027 18.895392 3.331298
2004-08-16 06:49:34 51°13.644 2°55.964 21.234 2.916691 19.518233 3.263879
2004-08-16 06:49:40 51°13.646 2°55.957 21.224973 2.965632 19.885227 3.23017
2004-08-16 06:49:45 51°13.648 2°55.951 21.207671 2.995105 20.106702 3.162751
2004-08-16 06:49:50 51°13.651 2°55.945 21.18754 3.010157 20.222183 3.129042
2004-08-16 06:49:54 51°13.653 2°55.939 21.183202 3.014263 20.255468 3.23017
2004-08-16 06:49:59 51°13.655 2°55.932 21.183202 3.014263 20.255468 3.23017
2004-08-16 06:50:05 51°13.659 2°55.923 21.159681 3.015736 20.266047 3.129042
2004-08-16 06:50:10 51°13.662 2°55.915 21.14933 3.014157 20.257284 3.027913
2004-08-16 06:50:15 51°13.665 2°55.907 21.139496 3.07353 20.703813 2.926785
2004-08-16 06:50:20 51°13.668 2°55.899 21.130417 3.129013 21.124167 2.859366
2004-08-16 06:50:25 51°13.671 2°55.89 21.126753 3.205878 21.703 2.825657
2004-08-16 06:50:30 51°13.675 2°55.882 21.126753 3.205878 21.703 2.825657
2004-08-16 06:50:35 51°13.678 2°55.873 21.113809 3.266113 22.161568 2.690819
2004-08-16 06:50:40 51°13.681 2°55.864 21.103572 3.312557 22.515166 2.589691
2004-08-16 06:50:45 51°13.684 2°55.855 21.098313 3.356266 22.850137 2.589691
2004-08-16 06:50:49 51°13.687 2°55.848 21.094807 3.39408 23.139977 2.522272
2004-08-16 06:50:53 51°13.689 2°55.841 21.092416 3.426102 23.385552 2.488563
2004-08-16 06:50:59 51°13.693 2°55.831 21.092416 3.426102 23.385552 2.488563
2004-08-16 06:51:05 51°13.696 2°55.82 21.090743 3.458021 23.632649 2.488563
2004-08-16 06:51:08 51°13.697 2°55.814 21.092058 3.471189 23.736781 2.421144
2004-08-16 06:51:13 51°13.699 2°55.805 21.096002 3.507956 24.017775 2.387435
2004-08-16 06:51:20 51°13.702 2°55.792 21.103054 3.52576 24.155814 2.488563
2004-08-16 06:51:24 51°13.704 2°55.785 21.103492 3.510695 24.04472 2.421144
2004-08-16 06:51:28 51°13.705 2°55.779 21.103492 3.510695 24.04472 2.421144
2004-08-16 06:51:33 51°13.706 2°55.771 21.112973 3.508798 24.031898 2.421144
2004-08-16 06:51:40 51°13.708 2°55.76 21.123289 3.492785 23.909815 2.454853
2004-08-16 06:51:44 51°13.709 2°55.755 21.128426 3.477299 23.791424 2.320016
2004-08-16 06:51:49 51°13.71 2°55.749 21.144234 3.446328 23.555666 2.387435
2004-08-16 06:51:51 51°13.71 2°55.747 21.154147 3.41915 23.348869 2.353725
2004-08-16 06:52:00 51°13.711 2°55.739 21.154147 3.41915 23.348869 2.353725
2004-08-16 06:52:04 51°13.712 2°55.737 21.158128 3.379123 23.043983 2.421144
2004-08-16 06:52:09 51°13.712 2°55.735 21.163661 3.324775 22.630882 2.387435
2004-08-16 06:52:14 51°13.713 2°55.734 21.151162 3.279488 22.286098 2.421144
2004-08-16 06:52:17 51°13.714 2°55.734 21.148654 3.211775 21.774294 2.488563
2004-08-16 06:52:25 51°13.716 2°55.735 21.146305 3.145018 21.271612 2.488563
2004-08-16 06:52:28 51°13.717 2°55.736 21.146305 3.145018 21.271612 2.488563
2004-08-16 06:52:33 51°13.719 2°55.736 21.141248 3.104062 20.96312 2.522272
2004-08-16 06:52:40 51°13.72 2°55.733 21.144911 3.068793 20.699177 2.555982
2004-08-16 06:52:45 51°13.72 2°55.731 21.139178 3.044265 20.51833 2.589691
2004-08-16 06:52:49 51°13.72 2°55.729 21.137426 3.019 20.332196 2.522272
2004-08-16 06:52:54 51°13.719 2°55.726 21.138979 2.994685 20.153594 2.65711
2004-08-16 06:52:57 51°13.718 2°55.725 21.138979 2.994685 20.153594 2.65711
2004-08-16 06:53:05 51°13.715 2°55.721 21.129939 2.95174 19.837017 2.555982
2004-08-16 06:53:10 51°13.712 2°55.719 21.135514 2.927848 19.661378 2.65711
2004-08-16 06:53:20 51°13.708 2°55.715 21.09907 2.840711 19.019802 2.690819
2004-08-16 06:53:25 51°13.708 2°55.715 21.065676 2.78894 18.640143 2.724529
2004-08-16 06:53:27 51°13.709 2°55.715 21.065676 2.78894 18.640143 2.724529
2004-08-16 06:53:33 51°13.711 2°55.714 21.043471 2.765898 18.472522 2.758238
2004-08-16 06:53:40 51°13.716 2°55.711 21.030512 2.761058 18.43791 2.724529
2004-08-16 06:53:42 51°13.717 2°55.71 21.016313 2.825137 18.913726 2.758238
2004-08-16 06:53:49 51°13.722 2°55.707 21.005942 2.937742 19.750969 2.555982
2004-08-16 06:53:53 51°13.726 2°55.704 20.990422 3.061425 20.679621 2.522272
2004-08-16 06:54:00 51°13.734 2°55.698 20.990422 3.061425 20.679621 2.522272
2004-08-16 06:54:02 51°13.736 2°55.696 20.965759 3.153863 21.378787 2.488563
2004-08-16 06:54:09 51°13.745 2°55.688 20.959931 3.210934 21.814274 2.421144
2004-08-16 06:54:13 51°13.75 2°55.684 20.952825 3.174711 21.550288 2.353725
2004-08-16 06:54:20 51°13.76 2°55.676 20.942644 3.173237 21.546545 2.387435
2004-08-16 06:54:21 51°13.761 2°55.674 20.946038 3.107011 21.055743 2.421144
2004-08-16 06:54:29 51°13.774 2°55.664 20.946038 3.107011 21.055743 2.421144
2004-08-16 06:54:32 51°13.779 2°55.66 20.959372 3.022371 20.431987 2.454853
2004-08-16 06:54:39 51°13.791 2°55.65 20.968792 3.007318 20.327834 2.488563
2004-08-16 06:54:48 51°13.807 2°55.638 21.003269 2.982582 20.150992 2.488563
2004-08-16 06:54:56 51°13.822 2°55.627 21.046063 2.959004 19.976386 2.454853
2004-08-16 06:55:04 51°13.838 2°55.617 21.08377 2.933323 19.783462 2.488563
2004-08-16 06:55:09 51°13.848 2°55.61 21.122373 2.910063 19.606849 2.488563
2004-08-16 06:55:13 51°13.857 2°55.605 21.146743 2.893645 19.480822 2.522272
2004-08-16 06:55:20 51°13.871 2°55.595 21.168 2.861232 19.232019 2.555982
2004-08-16 06:55:25 51°13.882 2°55.589 21.180337 2.771054 18.554121 2.6234
2004-08-16 06:55:28 51°13.888 2°55.584 21.180337 2.771054 18.554121 2.6234
2004-08-16 06:55:34 51°13.901 2°55.577 21.169671 2.660591 17.729192 2.758238
2004-08-16 06:55:39 51°13.912 2°55.57 21.159203 2.572239 17.07411 2.926785
2004-08-16 06:55:44 51°13.922 2°55.563 21.158208 2.513032 16.63186 3.061623
2004-08-16 06:55:49 51°13.933 2°55.555 21.144553 2.480645 16.389579 3.19646
2004-08-16 06:55:51 51°13.937 2°55.552 21.135435 2.490423 16.454823 3.263879
2004-08-16 06:56:00 51°13.957 2°55.539 21.135435 2.490423 16.454823 3.263879
2004-08-16 06:56:04 51°13.966 2°55.534 21.128107 2.547524 16.868111 3.23017
2004-08-16 06:56:09 51°13.977 2°55.526 21.113451 2.6324 17.486411 3.263879
2004-08-16 06:56:13 51°13.985 2°55.521 21.104727 2.724024 18.157202 3.19646
2004-08-16 06:56:19 51°13.998 2°55.512 21.094568 2.813457 18.816334 2.960494
2004-08-16 06:56:24 51°14.009 2°55.504 21.090982 2.899958 19.456092 2.960494
2004-08-16 06:56:28 51°14.018 2°55.498 21.090982 2.899958 19.456092 2.960494
2004-08-16 06:56:32 51°14.027 2°55.492 21.086439 2.992474 20.144009 2.791947
2004-08-16 06:56:38 51°14.04 2°55.483 21.08883 3.064688 20.68461 2.6234
2004-08-16 06:56:44 51°14.054 2°55.473 21.09907 3.11817 21.08711 2.65711
2004-08-16 06:56:49 51°14.065 2°55.465 21.109308 3.161128 21.412412 2.555982
2004-08-16 06:56:53 51°14.075 2°55.458 21.116956 3.181028 21.564233 2.488563
2004-08-16 06:56:58 51°14.086 2°55.449 21.116956 3.181028 21.564233 2.488563
2004-08-16 06:57:04 51°14.1 2°55.439 21.127271 3.18524 21.597114 2.454853
2004-08-16 06:57:09 51°14.112 2°55.43 21.139417 3.167235 21.462518 2.488563
2004-08-16 06:57:11 51°14.117 2°55.426 21.152714 3.127646 21.165238 2.522272
2004-08-16 06:57:20 51°14.139 2°55.407 21.162507 3.080269 20.807848 2.555982
2004-08-16 06:57:21 51°14.142 2°55.405 21.169114 3.033738 20.458596 2.522272
2004-08-16 06:57:32 51°14.169 2°55.382 21.17393 2.985106 20.093614 2.555982
2004-08-16 06:57:36 51°14.179 2°55.372 21.188415 2.933847 19.710132 2.589691
2004-08-16 06:57:41 51°14.19 2°55.359 21.188415 2.933847 19.710132 2.589691
2004-08-16 06:57:46 51°14.202 2°55.346 21.197964 2.880278 19.309395 2.589691
2004-08-16 06:57:49 51°14.209 2°55.337 21.201346 2.848287 19.069756 2.65711
2004-08-16 06:57:56 51°14.226 2°55.317 21.210137 2.821875 18.872157 2.690819
2004-08-16 06:58:00 51°14.235 2°55.304 21.224973 2.792728 18.654491 2.758238
2004-08-16 06:58:04 51°14.244 2°55.291 21.235392 2.75464 18.371099 2.825657
2004-08-16 06:58:12 51°14.261 2°55.263 21.235392 2.75464 18.371099 2.825657
2004-08-16 06:58:17 51°14.271 2°55.245 21.242628 2.728864 18.178341 2.825657
2004-08-16 06:58:20 51°14.278 2°55.233 21.250262 2.711084 18.045754 2.758238
2004-08-16 06:58:25 51°14.288 2°55.214 21.254714 2.692884 17.910245 2.926785
2004-08-16 06:58:31 51°14.3 2°55.19 21.255469 2.667217 17.717882 2.926785
2004-08-16 06:58:37 51°14.312 2°55.166 21.263062 2.622723 17.39028 2.960494
2004-08-16 06:58:41 51°14.32 2°55.149 21.263062 2.622723 17.39028 2.960494
2004-08-16 06:58:44 51°14.326 2°55.136 21.249268 2.587488 17.129866 2.994204
2004-08-16 06:58:50 51°14.339 2°55.111 21.24064 2.549101 16.848791 2.960494
2004-08-16 06:58:56 51°14.351 2°55.086 21.231017 2.531223 16.717199 3.095332
2004-08-16 06:59:01 51°14.362 2°55.065 21.219246 2.530908 16.71358 2.994204
2004-08-16 06:59:04 51°14.369 2°55.052 21.189967 2.54889 16.843498 3.027913
2004-08-16 06:59:12 51°14.387 2°55.017 21.189967 2.54889 16.843498 3.027913
2004-08-16 06:59:16 51°14.397 2°55 21.166766 2.587172 17.1221 2.994204
2004-08-16 06:59:21 51°14.409 2°54.978 21.129342 2.623353 17.386804 2.926785
2004-08-16 06:59:26 51°14.421 2°54.957 21.104966 2.681313 17.812679 2.893076
2004-08-16 06:59:31 51°14.435 2°54.936 21.077274 2.767686 18.448945 2.825657
2004-08-16 06:59:36 51°14.449 2°54.917 21.042713 2.881646 19.293787 2.65711
2004-08-16 06:59:41 51°14.463 2°54.899 21.042713 2.881646 19.293787 2.65711
2004-08-16 06:59:46 51°14.478 2°54.882 20.983399 3.02479 20.36043 2.6234
2004-08-16 06:59:52 51°14.497 2°54.865 20.936255 3.153441 21.331006 2.522272
2004-08-16 06:59:56 51°14.51 2°54.854 20.897071 3.317929 22.576883 2.454853
2004-08-16 07:00:01 51°14.526 2°54.84 20.868699 3.450647 23.59249 2.353725
2004-08-16 07:00:06 51°14.543 2°54.827 20.851349 3.5914 24.675605 2.185178
2004-08-16 07:00:12 51°14.562 2°54.812 20.851349 3.5914 24.675605 2.185178
2004-08-16 07:00:17 51°14.579 2°54.8 20.822718 3.730706 25.760919 1.949212
2004-08-16 07:00:20 51°14.589 2°54.793 20.807318 3.879315 26.931818 1.814375
2004-08-16 07:00:24 51°14.602 2°54.784 20.799997 4.011401 27.97873 1.713247
2004-08-16 07:00:32 51°14.629 2°54.766 20.782991 4.098065 28.673989 1.645828
2004-08-16 07:00:36 51°14.642 2°54.757 20.775748 4.137182 28.995387 1.612118
2004-08-16 07:00:40 51°14.656 2°54.749 20.775748 4.137182 28.995387 1.612118
2004-08-16 07:00:44 51°14.669 2°54.741 20.763299 4.218902 29.652542 1.409862
2004-08-16 07:00:53 51°14.7 2°54.726 20.746845 4.306325 30.362293 1.308734
2004-08-16 07:00:59 51°14.72 2°54.715 20.746845 4.306325 30.362293 1.308734
2004-08-16 07:01:04 51°14.737 2°54.707 20.733631 4.337436 30.61665 1.207606
2004-08-16 07:01:08 51°14.751 2°54.701 20.716089 4.354522 30.761322 1.173896
2004-08-16 07:01:14 51°14.772 2°54.691 20.700185 4.372767 30.911303 1.106477
2004-08-16 07:01:19 51°14.789 2°54.683 20.692332 4.385318 31.01747 1.140187
2004-08-16 07:01:24 51°14.806 2°54.675 20.681071 4.424132 31.332947 1.106477
2004-08-16 07:01:29 51°14.823 2°54.667 20.681071 4.424132 31.332947 1.106477
2004-08-16 07:01:42 51°14.868 2°54.65 20.668045 4.513999 32.07713 0.904221
2004-08-16 07:01:48 51°14.889 2°54.643 20.668045 4.513999 32.07713 0.904221
2004-08-16 07:01:53 51°14.906 2°54.637 20.66568 4.55767 32.435584 0.735674
2004-08-16 07:01:54 51°14.91 2°54.636 20.657302 4.576764 32.59193 0.769383
2004-08-16 07:02:06 51°14.951 2°54.624 20.655538 4.613264 32.894299 0.634546
2004-08-16 07:02:12 51°14.972 2°54.618 20.655538 4.613264 32.894299 0.634546
2004-08-16 07:02:17 51°14.989 2°54.612 20.644553 4.62202 32.966364 0.567127
2004-08-16 07:02:21 51°15.003 2°54.607 20.640382 4.633413 33.06224 0.567127
2004-08-16 07:02:26 51°15.02 2°54.6 20.63938 4.641114 33.127581 0.567127
2004-08-16 07:02:32 51°15.04 2°54.592 20.633204 4.647444 33.183077 0.465999
2004-08-16 07:02:37 51°15.056 2°54.585 20.630076 4.654196 33.238163 0.432289
2004-08-16 07:02:41 51°15.069 2°54.578 20.630076 4.654196 33.238163 0.432289
2004-08-16 07:02:46 51°15.085 2°54.57 20.626106 4.662425 33.309452 0.499708
2004-08-16 07:02:52 51°15.104 2°54.558 20.62398 4.666328 33.342878 0.432289
2004-08-16 07:02:56 51°15.116 2°54.549 20.616359 4.668333 33.362752 0.39858
2004-08-16 07:03:00 51°15.129 2°54.539 20.614072 4.671498 33.390829 0.432289
2004-08-16 07:03:05 51°15.144 2°54.526 20.611425 4.671709 33.395258 0.432289
2004-08-16 07:03:12 51°15.165 2°54.508 20.611425 4.671709 33.395258 0.432289
2004-08-16 07:03:16 51°15.177 2°54.497 20.606771 4.676351 33.435724 0.432289
2004-08-16 07:03:21 51°15.193 2°54.484 20.603361 4.676984 33.443538 0.39858
2004-08-16 07:03:25 51°15.205 2°54.473 20.595658 4.681098 33.480897 0.39858
2004-08-16 07:03:32 51°15.227 2°54.455 20.597343 4.68036 33.480474 0.364871
2004-08-16 07:03:35 51°15.236 2°54.448 20.588716 4.681626 33.49117 0.39858
2004-08-16 07:03:44 51°15.265 2°54.428 20.582656 4.681204 33.490537 0.364871
2004-08-16 07:03:52 51°15.292 2°54.414 20.578081 4.683314 33.511851 0.364871
2004-08-16 07:03:56 51°15.306 2°54.409 20.574429 4.682892 33.51177 0.499708
2004-08-16 07:04:00 51°15.32 2°54.404 20.572623 4.681837 33.505512 0.364871
2004-08-16 07:04:04 51°15.333 2°54.4 20.570254 4.685635 33.540373 0.39858
2004-08-16 07:04:12 51°15.361 2°54.392 20.570254 4.685635 33.540373 0.39858
2004-08-16 07:04:13 51°15.364 2°54.392 20.569171 4.685846 33.545372 0.465999
2004-08-16 07:04:24 51°15.402 2°54.381 20.562708 4.685424 33.545293 0.432289
2004-08-16 07:04:28 51°15.416 2°54.376 20.553515 4.685741 33.550589 0.39858
2004-08-16 07:04:33 51°15.434 2°54.369 20.55243 4.686374 33.557321 0.39858
2004-08-16 07:04:38 51°15.451 2°54.361 20.550543 4.684475 33.545393 0.364871
2004-08-16 07:04:44 51°15.471 2°54.349 20.546207 4.681416 33.524153 0.465999
2004-08-16 07:04:48 51°15.484 2°54.341 20.545645 4.679411 33.511926 0.432289
2004-08-16 07:04:54 51°15.504 2°54.328 20.545645 4.679411 33.511926 0.432289
2004-08-16 07:04:56 51°15.51 2°54.323 20.546328 4.687218 33.579544 0.432289
2004-08-16 07:05:05 51°15.541 2°54.306 20.545043 4.688379 33.594384 0.432289
2004-08-16 07:05:09 51°15.555 2°54.301 20.545043 4.688379 33.594384 0.432289
2004-08-16 07:05:20 51°15.594 2°54.287 20.548335 4.691438 33.622267 0.39858
2004-08-16 07:05:28 51°15.622 2°54.28 20.545886 4.691544 33.623114 0.364871
2004-08-16 07:05:31 51°15.632 2°54.277 20.548094 4.691755 33.624809 0.39858
2004-08-16 07:05:36 51°15.65 2°54.272 20.551748 4.693127 33.636377 0.432289
2004-08-16 07:05:41 51°15.667 2°54.267 20.555843 4.69281 33.633282 0.39858
2004-08-16 07:05:48 51°15.692 2°54.259 20.555843 4.69281 33.633282 0.39858
2004-08-16 07:05:50 51°15.699 2°54.256 20.560982 4.692071 33.627351 0.39858
2004-08-16 07:05:57 51°15.723 2°54.246 20.563792 4.691755 33.624809 0.39858
2004-08-16 07:06:02 51°15.741 2°54.238 20.572462 4.693865 33.640094 0.39858
2004-08-16 07:06:05 51°15.751 2°54.233 20.578844 4.692493 33.62908 0.432289
2004-08-16 07:06:13 51°15.779 2°54.222 20.586308 4.6907 33.611914 0.39858
2004-08-16 07:06:16 51°15.79 2°54.218 20.586308 4.6907 33.611914 0.39858
2004-08-16 07:06:20 51°15.804 2°54.214 20.591525 4.687429 33.582894 0.432289
2004-08-16 07:06:28 51°15.832 2°54.207 20.597062 4.68859 33.588345 0.364871
2004-08-16 07:06:30 51°15.839 2°54.206 20.603121 4.688062 33.580246 0.39858
2004-08-16 07:06:37 51°15.864 2°54.201 20.608496 4.689117 33.583193 0.432289
2004-08-16 07:06:40 51°15.875 2°54.199 20.613551 4.688695 33.573737 0.39858
2004-08-16 07:06:46 51°15.896 2°54.194 20.613551 4.688695 33.573737 0.39858
2004-08-16 07:06:53 51°15.919 2°54.187 20.619247 4.685741 33.546179 0.39858
2004-08-16 07:06:56 51°15.929 2°54.183 20.625223 4.683631 33.524297 0.432289
2004-08-16 07:07:00 51°15.941 2°54.179 20.633124 4.687851 33.555387 0.465999
2004-08-16 07:07:07 51°15.961 2°54.17 20.643029 4.688167 33.553517 0.499708
2004-08-16 07:07:12 51°15.975 2°54.164 20.650286 4.689644 33.560401 0.499708
2004-08-16 07:07:17 51°15.988 2°54.157 20.650286 4.689644 33.560401 0.499708
2004-08-16 07:07:21 51°15.997 2°54.151 20.659667 4.690277 33.56162 0.567127
2004-08-16 07:07:27 51°16.011 2°54.143 20.666723 4.689749 33.552984 0.533418
2004-08-16 07:07:31 51°16.02 2°54.138 20.672374 4.690699 33.554537 0.668255
2004-08-16 07:07:37 51°16.033 2°54.131 20.676502 4.689855 33.542818 0.769383
2004-08-16 07:07:43 51°16.046 2°54.126 20.680991 4.690277 33.538497 0.735674
2004-08-16 07:07:46 51°16.052 2°54.123 20.680991 4.690277 33.538497 0.735674
2004-08-16 07:07:53 51°16.066 2°54.122 20.683356 4.689116 33.5237 0.735674
2004-08-16 07:07:58 51°16.076 2°54.123 20.68556 4.689221 33.519048 0.803093
2004-08-16 07:08:02 51°16.083 2°54.124 20.687844 4.687744 33.501726 0.803093
2004-08-16 07:08:08 51°16.094 2°54.127 20.689046 4.686689 33.489436 0.93793
2004-08-16 07:08:10 51°16.098 2°54.128 20.689206 4.684052 33.46503 0.93793
2004-08-16 07:08:21 51°16.116 2°54.136 20.689366 4.686162 33.478628 0.93793
2004-08-16 07:08:27 51°16.125 2°54.142 20.689527 4.684473 33.462924 1.005349
2004-08-16 07:08:33 51°16.134 2°54.149 20.688285 4.684157 33.458198 0.97164
2004-08-16 07:08:36 51°16.139 2°54.153 20.689126 4.682785 33.446127 1.039059
2004-08-16 07:08:40 51°16.145 2°54.158 20.689126 4.680675 33.429244 1.072768
2004-08-16 07:08:48 51°16.156 2°54.169 20.689126 4.680675 33.429244 1.072768
2004-08-16 07:08:53 51°16.162 2°54.176 20.689206 4.680992 33.431229 1.072768
2004-08-16 07:08:57 51°16.168 2°54.182 20.688525 4.68057 33.427852 1.140187
2004-08-16 07:09:00 51°16.172 2°54.185 20.687443 4.678038 33.408142 1.106477
2004-08-16 07:09:07 51°16.18 2°54.194 20.687683 4.679831 33.421396 1.140187
2004-08-16 07:09:11 51°16.185 2°54.199 20.687363 4.678882 33.413799 1.173896
2004-08-16 07:09:17 51°16.191 2°54.206 20.687363 4.678882 33.413799 1.173896
2004-08-16 07:09:21 51°16.195 2°54.211 20.687002 4.678671 33.412111 1.140187
2004-08-16 07:09:27 51°16.201 2°54.218 20.686922 4.678882 33.414347 1.173896
2004-08-16 07:09:33 51°16.207 2°54.224 20.687082 4.678776 33.412955 1.106477
2004-08-16 07:09:36 51°16.21 2°54.227 20.687443 4.678354 33.409579 1.140187
2004-08-16 07:09:40 51°16.213 2°54.231 20.686481 4.678354 33.410674 1.140187
2004-08-16 07:09:48 51°16.221 2°54.239 20.686481 4.678354 33.410674 1.140187
2004-08-16 07:09:52 51°16.224 2°54.242 20.686 4.679198 33.416879 1.140187
2004-08-16 07:09:56 51°16.227 2°54.246 20.68564 4.678671 33.413754 1.173896
2004-08-16 07:10:00 51°16.231 2°54.249 20.683957 4.678565 33.411815 1.207606
2004-08-16 07:10:07 51°16.236 2°54.254 20.684037 4.678776 33.41405 1.173896
2004-08-16 07:10:11 51°16.239 2°54.257 20.682955 4.679304 33.418271 1.241315
2004-08-16 07:10:17 51°16.244 2°54.26 20.682955 4.679304 33.418271 1.241315
2004-08-16 07:10:22 51°16.247 2°54.263 20.683636 4.678354 33.411221 1.207606
2004-08-16 07:10:27 51°16.251 2°54.265 20.683957 4.678143 33.410081 1.173896
2004-08-16 07:10:33 51°16.254 2°54.267 20.681913 4.678987 33.417381 1.173896
2004-08-16 07:10:37 51°16.257 2°54.268 20.683035 4.67846 33.413708 1.140187
2004-08-16 07:10:40 51°16.258 2°54.269 20.682674 4.678988 33.418476 1.173896
2004-08-16 07:10:45 51°16.26 2°54.27 20.682674 4.678988 33.418476 1.173896
2004-08-16 07:10:52 51°16.263 2°54.27 20.681151 4.678671 33.415396 1.207606
2004-08-16 07:10:57 51°16.264 2°54.269 20.681352 4.67846 33.413708 1.173896
2004-08-16 07:11:00 51°16.265 2°54.269 20.681512 4.678566 33.414004 1.173896
2004-08-16 07:11:08 51°16.266 2°54.267 20.68043 4.677933 33.410034 1.173896
2004-08-16 07:11:13 51°16.266 2°54.266 20.681352 4.678988 33.418476 1.241315
2004-08-16 07:11:25 51°16.267 2°54.264 20.682674 4.678988 33.419571 1.140187
2004-08-16 07:11:30 51°16.268 2°54.262 20.682674 4.678988 33.419571 1.140187
2004-08-16 07:11:34 51°16.268 2°54.261 20.683275 4.679304 33.421556 1.140187
2004-08-16 07:11:40 51°16.269 2°54.26 20.683556 4.679621 33.425731 1.173896
2004-08-16 07:11:44 51°16.269 2°54.258 20.683115 4.679937 33.427716 1.140187
2004-08-16 07:11:49 51°16.269 2°54.257 20.683796 4.679304 33.422651 1.140187
2004-08-16 07:11:53 51°16.27 2°54.256 20.681993 4.679304 33.423199 1.140187
2004-08-16 07:12:00 51°16.27 2°54.254 20.681993 4.679304 33.423199 1.140187
2004-08-16 07:12:04 51°16.271 2°54.252 20.681672 4.679515 33.422697 1.207606
2004-08-16 07:12:08 51°16.271 2°54.251 20.681071 4.678777 33.417335 1.173896
2004-08-16 07:12:13 51°16.271 2°54.249 20.681833 4.679726 33.424933 1.207606
2004-08-16 07:12:18 51°16.272 2°54.247 20.679388 4.678671 33.417038 1.106477
2004-08-16 07:12:24 51°16.272 2°54.245 20.680069 4.678988 33.419023 1.106477
2004-08-16 07:12:28 51°16.272 2°54.243 20.680069 4.678988 33.419023 1.106477
2004-08-16 07:12:33 51°16.273 2°54.241 20.68043 4.679515 33.424887 1.140187
2004-08-16 07:12:40 51°16.274 2°54.239 20.679669 4.679515 33.424339 1.241315
2004-08-16 07:12:45 51°16.274 2°54.237 20.678987 4.679621 33.425184 1.140187
2004-08-16 07:12:48 51°16.274 2°54.235 20.68059 4.678988 33.420118 1.140187
2004-08-16 07:12:53 51°16.275 2°54.233 20.680751 4.678882 33.420369 1.140187
2004-08-16 07:13:05 51°16.275 2°54.229 20.679468 4.679726 33.427123 1.140187
2004-08-16 07:13:10 51°16.276 2°54.227 20.679067 4.679726 33.427123 1.140187
2004-08-16 07:13:14 51°16.276 2°54.225 20.679628 4.679515 33.425435 1.140187
2004-08-16 07:13:20 51°16.277 2°54.223 20.679228 4.679304 33.423199 1.140187
2004-08-16 07:13:24 51°16.277 2°54.221 20.678787 4.679726 33.426576 1.140187
2004-08-16 07:13:28 51°16.278 2°54.22 20.678787 4.679726 33.426576 1.140187
2004-08-16 07:13:33 51°16.278 2°54.218 20.677945 4.679304 33.423746 1.140187
2004-08-16 07:13:40 51°16.279 2°54.215 20.678025 4.679304 33.423746 1.173896
2004-08-16 07:13:42 51°16.279 2°54.214 20.678627 4.679199 33.422902 1.140187
2004-08-16 07:13:49 51°16.28 2°54.212 20.678466 4.679093 33.423153 1.140187
2004-08-16 07:13:53 51°16.28 2°54.21 20.678987 4.679093 33.422606 1.106477
2004-08-16 07:14:00 51°16.281 2°54.207 20.678987 4.679093 33.422606 1.106477
2004-08-16 07:14:04 51°16.281 2°54.206 20.679308 4.679832 33.428515 1.140187
2004-08-16 07:14:09 51°16.282 2°54.204 20.679468 4.679199 33.425093 1.173896
2004-08-16 07:14:13 51°16.282 2°54.203 20.679148 4.679621 33.427374 1.106477
2004-08-16 07:14:19 51°16.283 2°54.2 20.679148 4.680043 33.429656 1.173896
2004-08-16 07:14:24 51°16.284 2°54.199 20.678947 4.679515 33.425435 1.173896
2004-08-16 07:14:30 51°16.284 2°54.196 20.678947 4.679515 33.425435 1.173896
2004-08-16 07:14:34 51°16.285 2°54.195 20.680751 4.679304 33.423746 1.173896
2004-08-16 07:14:39 51°16.286 2°54.193 20.682434 4.679832 33.428515 1.106477
2004-08-16 07:14:44 51°16.287 2°54.191 20.681913 4.679093 33.422606 1.207606
2004-08-16 07:14:48 51°16.287 2°54.19 20.682674 4.679621 33.426279 1.173896
2004-08-16 07:14:59 51°16.289 2°54.186 20.683115 4.679621 33.426279 1.106477
2004-08-16 07:15:05 51°16.291 2°54.183 20.683436 4.680043 33.428561 1.207606
2004-08-16 07:15:08 51°16.293 2°54.182 20.686561 4.679726 33.424933 1.173896
2004-08-16 07:15:13 51°16.296 2°54.179 20.687443 4.680148 33.428309 1.207606
2004-08-16 07:15:16 51°16.298 2°54.177 20.689366 4.680148 33.427762 1.173896
2004-08-16 07:15:24 51°16.305 2°54.17 20.690649 4.680676 33.431983 1.106477
2004-08-16 07:15:28 51°16.309 2°54.165 20.690649 4.680676 33.431983 1.106477
2004-08-16 07:15:33 51°16.314 2°54.159 20.690368 4.680359 33.428355 1.173896
2004-08-16 07:15:40 51°16.322 2°54.148 20.688084 4.680464 33.428651 1.140187
2004-08-16 07:15:43 51°16.325 2°54.142 20.687082 4.687216 33.481587 1.207606
2004-08-16 07:15:48 51°16.332 2°54.132 20.686601 4.687322 33.482431 1.140187
2004-08-16 07:15:54 51°16.342 2°54.118 20.686321 4.687216 33.48049 1.140187
2004-08-16 07:16:00 51°16.354 2°54.102 20.686321 4.687216 33.48049 1.140187
2004-08-16 07:16:04 51°16.363 2°54.09 20.687323 4.687322 33.481334 1.207606
2004-08-16 07:16:09 51°16.374 2°54.075 20.68584 4.687427 33.482727 1.072768
2004-08-16 07:16:13 51°16.383 2°54.062 20.683796 4.687216 33.482135 1.106477
2004-08-16 07:16:20 51°16.4 2°54.039 20.682434 4.682469 33.444143 1.140187
2004-08-16 07:16:24 51°16.41 2°54.025 20.680831 4.679304 33.418271 1.140187
2004-08-16 07:16:29 51°16.421 2°54.005 20.680831 4.679304 33.418271 1.140187
2004-08-16 07:16:33 51°16.43 2°53.989 20.678386 4.67962 33.420803 1.140187
2004-08-16 07:16:40 51°16.446 2°53.958 20.676943 4.679831 33.423039 1.140187
2004-08-16 07:16:44 51°16.455 2°53.94 20.676182 4.680675 33.430887 1.173896
2004-08-16 07:16:48 51°16.464 2°53.922 20.670611 4.680781 33.432827 1.106477
2004-08-16 07:16:53 51°16.475 2°53.899 20.669248 4.688377 33.494167 1.173896
2004-08-16 07:17:00 51°16.491 2°53.865 20.669248 4.688377 33.494167 1.173896
2004-08-16 07:17:04 51°16.5 2°53.847 20.665079 4.687006 33.485933 1.207606
2004-08-16 07:17:08 51°16.509 2°53.827 20.661992 4.687322 33.489564 1.207606
2004-08-16 07:17:13 51°16.52 2°53.803 20.658264 4.687744 33.49404 1.173896
2004-08-16 07:17:20 51°16.535 2°53.769 20.657663 4.687744 33.495138 1.173896
2004-08-16 07:17:25 51°16.546 2°53.745 20.6563 4.688483 33.503246 1.173896
2004-08-16 07:17:28 51°16.553 2°53.731 20.6563 4.688483 33.503246 1.173896
2004-08-16 07:17:33 51°16.565 2°53.707 20.653093 4.688588 33.507935 1.140187
2004-08-16 07:17:39 51°16.579 2°53.679 20.652491 4.688905 33.512118 1.207606
2004-08-16 07:17:44 51°16.59 2°53.655 20.650567 4.689538 33.518835 1.207606
2004-08-16 07:17:49 51°16.602 2°53.632 20.648081 4.689116 33.518203 1.308734
2004-08-16 07:17:52 51°16.609 2°53.618 20.64776 4.689643 33.522978 1.140187
2004-08-16 07:18:00 51°16.628 2°53.581 20.64776 4.689643 33.522978 1.140187
2004-08-16 07:18:04 51°16.637 2°53.562 20.647079 4.68996 33.527712 1.275024
2004-08-16 07:18:09 51°16.65 2°53.54 20.646317 4.690382 33.531642 1.173896
2004-08-16 07:18:13 51°16.659 2°53.522 20.646156 4.690804 33.536122 1.241315
2004-08-16 07:18:19 51°16.674 2°53.495 20.645154 4.691226 33.541153 1.241315
2004-08-16 07:18:25 51°16.689 2°53.469 20.645796 4.691226 33.542253 1.173896
2004-08-16 07:18:30 51°16.701 2°53.446 20.645796 4.691226 33.542253 1.173896
2004-08-16 07:18:34 51°16.711 2°53.429 20.649364 4.692175 33.55096 1.207606
2004-08-16 07:18:40 51°16.725 2°53.402 20.646237 4.692386 33.552101 1.207606
2004-08-16 07:18:44 51°16.735 2°53.384 20.642949 4.692387 33.553752 1.241315
2004-08-16 07:18:48 51°16.744 2°53.366 20.639219 4.692281 33.552356 1.207606
2004-08-16 07:18:52 51°16.754 2°53.348 20.634046 4.69302 33.558273 1.207606
2004-08-16 07:19:00 51°16.773 2°53.312 20.634046 4.69302 33.558273 1.207606
2004-08-16 07:19:04 51°16.782 2°53.294 20.632041 4.692281 33.552356 1.173896
2004-08-16 07:19:09 51°16.794 2°53.271 20.624582 4.692703 33.556287 1.140187
2004-08-16 07:19:13 51°16.804 2°53.254 20.618645 4.693969 33.568083 1.140187
2004-08-16 07:19:20 51°16.821 2°53.224 20.611264 4.694813 33.5776 1.140187
2004-08-16 07:19:25 51°16.833 2°53.202 20.606651 4.695235 33.583737 1.039059
2004-08-16 07:19:29 51°16.843 2°53.186 20.606651 4.695235 33.583737 1.039059
2004-08-16 07:19:33 51°16.853 2°53.169 20.602398 4.696079 33.593258 1.039059
2004-08-16 07:19:40 51°16.87 2°53.141 20.594895 4.696923 33.603883 1.039059
2004-08-16 07:19:45 51°16.882 2°53.121 20.587512 4.697556 33.612267 1.005349
2004-08-16 07:19:49 51°16.892 2°53.105 20.581573 4.699561 33.633861 1.039059
2004-08-16 07:19:54 51°16.903 2°53.085 20.575512 4.69935 33.636034 1.039059
2004-08-16 07:19:59 51°16.914 2°53.065 20.575512 4.69935 33.636034 1.039059
2004-08-16 07:20:05 51°16.928 2°53.04 20.570696 4.700405 33.650021 0.836802
2004-08-16 07:20:08 51°16.934 2°53.028 20.564554 4.701566 33.663754 0.97164
2004-08-16 07:20:13 51°16.944 2°53.006 20.560139 4.701566 33.669284 0.904221
2004-08-16 07:20:19 51°16.957 2°52.979 20.555562 4.702621 33.681071 0.93793
2004-08-16 07:20:24 51°16.967 2°52.957 20.553113 4.703043 33.688886 0.97164
2004-08-16 07:20:41 51°17.004 2°52.882 20.539582 4.703465 33.701689 0.904221
2004-08-16 07:20:44 51°17.012 2°52.869 20.538819 4.703676 33.707817 0.904221
2004-08-16 07:20:53 51°17.035 2°52.833 20.529743 4.70336 33.710817 0.904221
2004-08-16 07:21:00 51°17.054 2°52.806 20.529743 4.70336 33.710817 0.904221
2004-08-16 07:21:03 51°17.062 2°52.795 20.528779 4.704415 33.723174 0.870512
2004-08-16 07:21:08 51°17.076 2°52.776 20.523638 4.704943 33.731295 0.870512
2004-08-16 07:21:11 51°17.085 2°52.765 20.520585 4.705259 33.736058 0.870512
2004-08-16 07:21:16 51°17.098 2°52.746 20.513756 4.705681 33.742224 0.870512
2004-08-16 07:21:26 51°17.124 2°52.705 20.506525 4.706209 33.750351 0.93793
2004-08-16 07:21:32 51°17.139 2°52.679 20.501865 4.706209 33.753683 0.93793
2004-08-16 07:21:35 51°17.146 2°52.666 20.50082 4.706525 33.758449 0.904221
2004-08-16 07:21:40 51°17.158 2°52.645 20.50082 4.706525 33.758449 0.904221
2004-08-16 07:21:46 51°17.172 2°52.618 20.49415 4.706314 33.75842 0.904221
2004-08-16 07:21:52 51°17.185 2°52.592 20.488002 4.70642 33.765937 1.005349
2004-08-16 07:21:57 51°17.197 2°52.569 20.481894 4.707053 33.774364 0.93793
2004-08-16 07:22:02 51°17.209 2°52.548 20.478558 4.707581 33.783612 0.93793
2004-08-16 07:22:06 51°17.219 2°52.53 20.474056 4.707581 33.786951 0.97164
2004-08-16 07:22:12 51°17.234 2°52.505 20.474056 4.707581 33.786951 0.97164
2004-08-16 07:22:16 51°17.244 2°52.488 20.467625 4.707475 33.789441 0.870512
2004-08-16 07:22:20 51°17.254 2°52.472 20.463967 4.708319 33.800685 0.904221
2004-08-16 07:22:30 51°17.28 2°52.432 20.45263 4.707687 33.802832 0.836802
2004-08-16 07:22:36 51°17.296 2°52.407 20.45263 4.707687 33.802832 0.836802
2004-08-16 07:22:40 51°17.306 2°52.39 20.446559 4.708109 33.808457 0.97164
2004-08-16 07:22:46 51°17.321 2°52.365 20.44105 4.708214 33.814879 0.97164
2004-08-16 07:22:49 51°17.329 2°52.352 20.437109 4.708531 33.821329 1.072768
2004-08-16 07:22:56 51°17.346 2°52.322 20.435983 4.708953 33.829189 1.005349
2004-08-16 07:23:00 51°17.356 2°52.304 20.428824 4.709059 33.834502 1.039059
2004-08-16 07:23:06 51°17.37 2°52.278 20.428824 4.709059 33.834502 1.039059
2004-08-16 07:23:10 51°17.38 2°52.261 20.422027 4.709586 33.843215 1.106477
2004-08-16 07:23:15 51°17.393 2°52.24 20.419814 4.709586 33.847681 1.106477
2004-08-16 07:23:20 51°17.406 2°52.22 20.412091 4.709059 33.846224 1.106477
2004-08-16 07:23:26 51°17.423 2°52.197 20.408028 4.70832 33.843066 1.140187
2004-08-16 07:23:28 51°17.428 2°52.19 20.402717 4.70832 33.847535 1.140187
2004-08-16 07:23:36 51°17.45 2°52.161 20.402717 4.70832 33.847535 1.140187
2004-08-16 07:23:40 51°17.461 2°52.147 20.397446 4.70832 33.850886 1.140187
2004-08-16 07:23:45 51°17.476 2°52.129 20.396239 4.708426 33.85453 1.207606
2004-08-16 07:23:50 51°17.49 2°52.111 20.389519 4.709165 33.865513 1.308734
2004-08-16 07:23:56 51°17.507 2°52.089 20.383281 4.709059 33.869136 1.140187
2004-08-16 07:24:00 51°17.518 2°52.075 20.379055 4.708637 33.86909 1.241315
2004-08-16 07:24:05 51°17.532 2°52.057 20.379055 4.708637 33.86909 1.241315
2004-08-16 07:24:09 51°17.543 2°52.042 20.369959 4.708743 33.874416 1.140187
2004-08-16 07:24:16 51°17.562 2°52.016 20.366296 4.707899 33.870408 1.207606
2004-08-16 07:24:20 51°17.573 2°52.001 20.362028 4.707899 33.874325 1.342443
2004-08-16 07:24:24 51°17.584 2°51.986 20.356312 4.707477 33.875399 1.308734
2004-08-16 07:24:32 51°17.606 2°51.956 20.350393 4.707688 33.88158 1.275024
2004-08-16 07:24:37 51°17.62 2°51.937 20.344917 4.707161 33.883484 1.275024
2004-08-16 07:24:44 51°17.639 2°51.911 20.340205 4.706739 33.88344 1.275024
2004-08-16 07:24:49 51°17.653 2°51.893 20.336782 4.705895 33.880551 1.275024
2004-08-16 07:24:53 51°17.664 2°51.878 20.336782 4.705895 33.880551 1.275024
2004-08-16 07:24:56 51°17.672 2°51.867 20.339078 4.705262 33.880485 1.241315
2004-08-16 07:25:04 51°17.694 2°51.838 20.337105 4.704523 33.878446 1.241315
2004-08-16 07:25:09 51°17.708 2°51.82 20.340367 4.70368 33.874996 1.207606
2004-08-16 07:25:13 51°17.718 2°51.805 20.339158 4.703047 33.873809 1.275024
2004-08-16 07:25:18 51°17.732 2°51.786 20.345682 4.701992 33.868094 1.275024
2004-08-16 07:25:24 51°17.748 2°51.764 20.345682 4.701992 33.868094 1.275024
2004-08-16 07:25:29 51°17.762 2°51.744 20.349185 4.701359 33.862983 1.207606
2004-08-16 07:25:32 51°17.77 2°51.733 20.351681 4.700831 33.859845 1.308734
2004-08-16 07:25:36 51°17.78 2°51.718 20.357318 4.699987 33.853032 1.241315
2004-08-16 07:25:46 51°17.808 2°51.68 20.362109 4.699987 33.852472 1.342443
2004-08-16 07:25:52 51°17.824 2°51.658 20.36537 4.699882 33.84882 1.409862
2004-08-16 07:25:55 51°17.833 2°51.647 20.368791 4.699565 33.844585 1.376153
2004-08-16 07:26:00 51°17.847 2°51.63 20.371367 4.699671 33.843197 1.443571
2004-08-16 07:26:04 51°17.858 2°51.615 20.375876 4.699776 33.840131 1.443571
2004-08-16 07:26:12 51°17.882 2°51.588 20.375876 4.699776 33.840131 1.443571
2004-08-16 07:26:15 51°17.89 2°51.578 20.379377 4.700092 33.839327 1.477281
2004-08-16 07:26:20 51°17.905 2°51.561 20.383965 4.699987 33.835118 1.409862
2004-08-16 07:26:24 51°17.916 2°51.547 20.38807 4.699987 33.832881 1.5447
2004-08-16 07:26:32 51°17.939 2°51.518 20.392819 4.699459 33.825829 1.477281
2004-08-16 07:26:35 51°17.948 2°51.508 20.39813 4.699881 33.826996 1.612118
2004-08-16 07:26:40 51°17.962 2°51.489 20.39813 4.699881 33.826996 1.612118
2004-08-16 07:26:44 51°17.973 2°51.475 20.401791 4.700092 33.826461 1.578409
2004-08-16 07:26:52 51°17.996 2°51.445 20.406378 4.699987 33.821138 1.612118
2004-08-16 07:26:55 51°18.004 2°51.434 20.409918 4.699986 33.817785 1.612118
2004-08-16 07:27:00 51°18.018 2°51.415 20.412976 4.700092 33.815283 1.578409
2004-08-16 07:27:04 51°18.029 2°51.4 20.416033 4.700092 33.812489 1.578409
2004-08-16 07:27:12 51°18.052 2°51.37 20.416033 4.700092 33.812489 1.578409
2004-08-16 07:27:15 51°18.06 2°51.359 20.418447 4.699775 33.806587 1.612118
2004-08-16 07:27:20 51°18.074 2°51.34 20.421061 4.700408 33.808339 1.645828
2004-08-16 07:27:24 51°18.086 2°51.325 20.423113 4.700197 33.803288 1.612118
2004-08-16 07:27:32 51°18.109 2°51.297 20.425084 4.700408 33.802756 1.679537
2004-08-16 07:27:35 51°18.118 2°51.287 20.426451 4.70083 33.802808 1.612118
2004-08-16 07:27:40 51°18.132 2°51.27 20.426451 4.70083 33.802808 1.612118
2004-08-16 07:27:44 51°18.144 2°51.256 20.426894 4.700408 33.797733 1.713247
2004-08-16 07:27:52 51°18.168 2°51.23 20.426974 4.700935 33.799751 1.645828
2004-08-16 07:27:55 51°18.177 2°51.221 20.427135 4.70083 33.797785 1.713247
2004-08-16 07:28:00 51°18.193 2°51.205 20.424722 4.701146 33.798662 1.612118
2004-08-16 07:28:04 51°18.205 2°51.192 20.42259 4.700724 33.793588 1.645828
2004-08-16 07:28:12 51°18.229 2°51.167 20.42259 4.700724 33.793588 1.645828
2004-08-16 07:28:15 51°18.238 2°51.157 20.421142 4.701463 33.79898 1.645828
2004-08-16 07:28:20 51°18.253 2°51.141 20.418769 4.701674 33.799564 1.713247
2004-08-16 07:28:24 51°18.265 2°51.128 20.416315 4.701674 33.800122 1.645828
2004-08-16 07:28:32 51°18.289 2°51.102 20.415188 4.702096 33.803522 1.645828
2004-08-16 07:28:35 51°18.298 2°51.092 20.412212 4.702096 33.804638 1.612118
2004-08-16 07:28:40 51°18.313 2°51.075 20.412212 4.702096 33.804638 1.612118
2004-08-16 07:28:45 51°18.328 2°51.059 20.409758 4.701885 33.80517 1.612118
2004-08-16 07:28:50 51°18.342 2°51.044 20.407867 4.701357 33.802036 1.578409
2004-08-16 07:28:56 51°18.357 2°51.028 20.405855 4.701463 33.805118 1.578409
2004-08-16 07:29:00 51°18.368 2°51.019 20.403159 4.701569 33.807085 1.51099
2004-08-16 07:29:06 51°18.382 2°51.008 20.398653 4.701041 33.80395 1.409862
2004-08-16 07:29:11 51°18.394 2°51.002 20.398653 4.701041 33.80395 1.409862
2004-08-16 07:29:16 51°18.405 2°50.997 20.396158 4.699142 33.791436 1.51099
2004-08-16 07:29:22 51°18.417 2°50.994 20.392819 4.699037 33.790586 1.409862
2004-08-16 07:29:26 51°18.425 2°50.994 20.390163 4.699248 33.793961 1.409862
2004-08-16 07:29:32 51°18.435 2°50.995 20.388312 4.698298 33.787982 1.342443
2004-08-16 07:29:36 51°18.442 2°50.997 20.385414 4.698615 33.793323 1.409862
2004-08-16 07:29:40 51°18.447 2°51.001 20.385414 4.698615 33.793323 1.409862
2004-08-16 07:29:44 51°18.453 2°51.005 20.384287 4.698615 33.796114 1.342443
2004-08-16 07:29:52 51°18.462 2°51.012 20.382154 4.698826 33.800049 1.376153
2004-08-16 07:29:56 51°18.467 2°51.017 20.380424 4.698193 33.796062 1.376153
2004-08-16 07:30:02 51°18.473 2°51.023 20.379941 4.697665 33.793484 1.477281
2004-08-16 07:30:07 51°18.477 2°51.028 20.37829 4.697771 33.797685 1.409862
2004-08-16 07:30:10 51°18.479 2°51.031 20.37829 4.697771 33.797685 1.409862
2004-08-16 07:30:16 51°18.484 2°51.037 20.377284 4.697454 33.79625 1.376153
2004-08-16 07:30:22 51°18.487 2°51.042 20.377204 4.697138 33.795374 1.376153
2004-08-16 07:30:25 51°18.489 2°51.045 20.379095 4.697243 33.7979 1.376153
2004-08-16 07:30:32 51°18.49 2°51.048 20.378371 4.696611 33.793354 1.409862
2004-08-16 07:30:36 51°18.49 2°51.049 20.377647 4.696611 33.794471 1.443571
2004-08-16 07:30:40 51°18.49 2°51.049 20.377647 4.696611 33.794471 1.443571
2004-08-16 07:30:47 51°18.489 2°51.048 20.37829 4.696927 33.798699 1.275024
2004-08-16 07:30:49 51°18.489 2°51.048 20.380625 4.696822 33.796731 1.308734
2004-08-16 07:31:00 51°18.488 2°51.048 20.383281 4.697349 33.800985 1.308734
2004-08-16 07:31:08 51°18.487 2°51.048 20.384448 4.697033 33.798991 1.376153
2004-08-16 07:31:12 51°18.487 2°51.048 20.383684 4.697244 33.800693 1.275024
2004-08-16 07:31:16 51°18.486 2°51.048 20.383684 4.697244 33.800693 1.275024
2004-08-16 07:31:21 51°18.486 2°51.048 20.382919 4.696822 33.796172 1.342443
2004-08-16 07:31:28 51°18.485 2°51.048 20.384448 4.697033 33.797315 1.51099
2004-08-16 07:31:32 51°18.484 2°51.048 20.382315 4.69756 33.801011 1.342443
2004-08-16 07:31:36 51°18.483 2°51.048 20.382838 4.697032 33.79564 1.342443
2004-08-16 07:31:41 51°18.483 2°51.048 20.380947 4.69851 33.808668 1.342443
2004-08-16 07:31:48 51°18.482 2°51.049 20.380947 4.69851 33.808668 1.342443
2004-08-16 07:31:52 51°18.481 2°51.049 20.379739 4.697982 33.803855 1.275024
2004-08-16 07:31:56 51°18.48 2°51.049 20.380102 4.697032 33.796198 1.308734
2004-08-16 07:32:01 51°18.48 2°51.049 20.380585 4.698193 33.806115 1.342443
2004-08-16 07:32:08 51°18.478 2°51.05 20.380263 4.69756 33.800452 1.308734
2004-08-16 07:32:11 51°18.478 2°51.05 20.382879 4.69756 33.801569 1.409862
2004-08-16 07:32:17 51°18.477 2°51.05 20.382879 4.69756 33.801569 1.409862
2004-08-16 07:32:21 51°18.476 2°51.051 20.382758 4.697455 33.801277 1.376153
2004-08-16 07:32:26 51°18.475 2°51.051 20.385293 4.697771 33.803829 1.409862
2004-08-16 07:32:33 51°18.474 2°51.052 20.388513 4.698299 33.808084 1.308734
2004-08-16 07:32:36 51°18.473 2°51.052 20.392577 4.697666 33.802979 1.275024
2004-08-16 07:32:40 51°18.472 2°51.052 20.395997 4.698088 33.805264 1.342443
2004-08-16 07:32:48 51°18.471 2°51.053 20.395997 4.698088 33.805264 1.342443
2004-08-16 07:32:50 51°18.47 2°51.053 20.398693 4.698721 33.80981 1.409862
2004-08-16 07:32:57 51°18.469 2°51.054 20.404769 4.697665 33.800744 1.342443
2004-08-16 07:33:00 51°18.468 2°51.054 20.410763 4.697243 33.795107 1.443571
2004-08-16 07:33:08 51°18.467 2°51.055 20.41197 4.697771 33.796568 1.376153
2004-08-16 07:33:11 51°18.466 2°51.055 20.413459 4.696821 33.786122 1.241315
2004-08-16 07:33:16 51°18.465 2°51.055 20.413459 4.696821 33.786122 1.241315
2004-08-16 07:33:26 51°18.463 2°51.056 20.412372 4.698193 33.79048 1.51099
2004-08-16 07:33:32 51°18.462 2°51.057 20.412212 4.698615 33.791091 1.376153
2004-08-16 07:33:37 51°18.461 2°51.057 20.412292 4.698298 33.786866 1.376153
2004-08-16 07:33:41 51°18.46 2°51.057 20.412292 4.698298 33.786866 1.376153
2004-08-16 07:33:46 51°18.459 2°51.058 20.412775 4.698404 33.785485 1.342443
2004-08-16 07:33:51 51°18.459 2°51.058 20.414947 4.699248 33.792286 1.5447
2004-08-16 07:33:56 51°18.458 2°51.058 20.413056 4.699986 33.798238 1.409862
2004-08-16 07:34:02 51°18.456 2°51.059 20.414585 4.700619 33.80334 1.409862
2004-08-16 07:34:06 51°18.456 2°51.059 20.417642 4.700303 33.799673 1.342443
2004-08-16 07:34:11 51°18.455 2°51.059 20.417642 4.700303 33.799673 1.342443
2004-08-16 07:34:16 51°18.454 2°51.06 20.423434 4.699775 33.795422 1.409862
2004-08-16 07:34:22 51°18.453 2°51.06 20.426612 4.699564 33.792605 1.342443
2004-08-16 07:34:24 51°18.453 2°51.06 20.431559 4.699248 33.790055 1.443571
2004-08-16 07:34:31 51°18.452 2°51.06 20.437109 4.699459 33.790639 1.342443
2004-08-16 07:34:37 51°18.45 2°51.061 20.439481 4.699353 33.788115 1.342443
2004-08-16 07:34:42 51°18.45 2°51.061 20.439481 4.699353 33.788115 1.342443
2004-08-16 07:34:45 51°18.449 2°51.061 20.442417 4.699669 33.788434 1.342443
2004-08-16 07:34:51 51°18.448 2°51.062 20.445312 4.69988 33.787346 1.308734
2004-08-16 07:34:56 51°18.448 2°51.062 20.447162 4.699775 33.78315 1.308734
2004-08-16 07:35:02 51°18.447 2°51.062 20.447282 4.700408 33.783788 1.376153
2004-08-16 07:35:06 51°18.446 2°51.062 20.448609 4.701146 33.787507 1.443571
2004-08-16 07:35:12 51°18.445 2°51.062 20.448609 4.701146 33.787507 1.443571
2004-08-16 07:35:17 51°18.445 2°51.063 20.448649 4.701357 33.785862 1.376153
2004-08-16 07:35:21 51°18.444 2°51.063 20.448448 4.701252 33.782225 1.376153
2004-08-16 07:35:24 51°18.444 2°51.063 20.447604 4.701674 33.785066 1.376153
2004-08-16 07:35:31 51°18.443 2°51.063 20.447323 4.702096 33.786793 1.376153
2004-08-16 07:35:37 51°18.442 2°51.063 20.446559 4.701674 33.783394 1.409862
2004-08-16 07:35:41 51°18.441 2°51.063 20.446559 4.701674 33.783394 1.409862
2004-08-16 07:35:45 51°18.441 2°51.063 20.446559 4.701357 33.780288 1.409862
2004-08-16 07:35:52 51°18.44 2°51.063 20.44676 4.701463 33.780581 1.342443
2004-08-16 07:35:57 51°18.44 2°51.063 20.446679 4.702096 33.786235 1.409862
2004-08-16 07:36:01 51°18.439 2°51.063 20.447524 4.701674 33.78228 1.308734
2004-08-16 07:36:05 51°18.438 2°51.063 20.447684 4.701885 33.785093 1.376153
2004-08-16 07:36:12 51°18.438 2°51.064 20.447684 4.701885 33.785093 1.376153
2004-08-16 07:36:16 51°18.438 2°51.064 20.448529 4.701568 33.782545 1.477281
2004-08-16 07:36:20 51°18.438 2°51.066 20.447684 4.701568 33.781987 1.443571
2004-08-16 07:36:26 51°18.439 2°51.068 20.447684 4.701568 33.782545 1.5447
2004-08-16 07:36:31 51°18.441 2°51.071 20.446237 4.701568 33.782545 1.342443
2004-08-16 07:36:37 51°18.443 2°51.075 20.446398 4.701357 33.780288 1.409862
2004-08-16 07:36:40 51°18.444 2°51.077 20.446398 4.701357 33.780288 1.409862
2004-08-16 07:36:45 51°18.447 2°51.081 20.446076 4.701252 33.779996 1.51099
2004-08-16 07:36:51 51°18.451 2°51.087 20.445795 4.701041 33.776625 1.409862
2004-08-16 07:36:57 51°18.457 2°51.095 20.448046 4.701463 33.780581 1.443571
2004-08-16 07:37:01 51°18.463 2°51.101 20.450097 4.701568 33.78143 1.477281
2004-08-16 07:37:06 51°18.47 2°51.11 20.451946 4.701357 33.780288 1.477281
2004-08-16 07:37:11 51°18.479 2°51.119 20.451946 4.701357 33.780288 1.477281
2004-08-16 07:37:16 51°18.489 2°51.128 20.452911 4.701252 33.779439 1.342443
2004-08-16 07:37:28 51°18.514 2°51.15 20.460389 4.701357 33.781403 1.409862
2004-08-16 07:37:31 51°18.521 2°51.156 20.467987 4.700935 33.77689 1.275024
2004-08-16 07:37:37 51°18.534 2°51.17 20.465495 4.700619 33.772113 1.477281
2004-08-16 07:37:40 51°18.54 2°51.177 20.464851 4.700619 33.772113 1.51099
2004-08-16 07:37:48 51°18.557 2°51.2 20.464851 4.700619 33.772113 1.51099
2004-08-16 07:37:51 51°18.563 2°51.209 20.469836 4.701568 33.775302 1.51099
2004-08-16 07:37:57 51°18.575 2°51.228 20.465253 4.700829 33.763788 1.746956
2004-08-16 07:38:02 51°18.586 2°51.246 20.471564 4.697875 33.736673 1.5447
2004-08-16 07:38:08 51°18.598 2°51.267 20.47478 4.697981 33.73641 1.612118
2004-08-16 07:38:12 51°18.606 2°51.283 20.48326 4.697981 33.735854 1.578409
2004-08-16 07:38:16 51°18.615 2°51.298 20.48326 4.697981 33.735854 1.578409
2004-08-16 07:38:20 51°18.623 2°51.314 20.481733 4.697875 33.733893 1.477281
2004-08-16 07:38:27 51°18.637 2°51.342 20.486073 4.697981 33.734186 1.578409
2004-08-16 07:38:31 51°18.645 2°51.36 20.49399 4.696926 33.722917 1.645828
2004-08-16 07:38:37 51°18.655 2°51.386 20.501865 4.695871 33.712206 1.578409
2004-08-16 07:38:40 51°18.66 2°51.4 20.506284 4.695237 33.704336 1.51099
2004-08-16 07:38:45 51°18.669 2°51.423 20.506284 4.695237 33.704336 1.51099
2004-08-16 07:38:53 51°18.681 2°51.46 20.512752 4.695132 33.70071 1.5447
2004-08-16 07:38:56 51°18.685 2°51.475 20.520545 4.695554 33.701883 1.612118
2004-08-16 07:39:00 51°18.69 2°51.494 20.525726 4.695132 33.693493 1.578409
2004-08-16 07:39:07 51°18.699 2°51.529 20.532474 4.695026 33.68765 1.612118
2004-08-16 07:39:13 51°18.706 2°51.559 20.538899 4.695554 33.688008 1.578409
2004-08-16 07:39:16 51°18.709 2°51.575 20.538899 4.695554 33.688008 1.578409
2004-08-16 07:39:21 51°18.714 2°51.6 20.546287 4.695448 33.681613 1.612118
2004-08-16 07:39:28 51°18.722 2°51.635 20.551909 4.695026 33.673231 1.578409
2004-08-16 07:39:31 51°18.725 2°51.65 20.560821 4.695553 33.673036 1.679537
2004-08-16 07:39:36 51°18.731 2°51.676 20.567645 4.69587 33.670592 1.645828
2004-08-16 07:39:40 51°18.736 2°51.696 20.576957 4.696186 33.668149 1.679537
2004-08-16 07:39:47 51°18.744 2°51.731 20.576957 4.696186 33.668149 1.679537
2004-08-16 07:39:53 51°18.751 2°51.762 20.583499 4.695659 33.659481 1.612118
2004-08-16 07:39:58 51°18.757 2°51.787 20.589278 4.696186 33.659289 1.645828
2004-08-16 07:40:02 51°18.762 2°51.807 20.593932 4.695975 33.649846 1.612118
2004-08-16 07:40:08 51°18.768 2°51.837 20.599028 4.695342 33.639785 1.612118
2004-08-16 07:40:11 51°18.772 2°51.853 20.604926 4.695447 33.635102 1.746956
2004-08-16 07:40:16 51°18.778 2°51.878 20.604926 4.695447 33.635102 1.746956
2004-08-16 07:40:20 51°18.783 2°51.898 20.610582 4.695342 33.628176 1.679537
2004-08-16 07:40:28 51°18.793 2°51.939 20.615998 4.695552 33.624344 1.612118
2004-08-16 07:40:31 51°18.796 2°51.954 20.617883 4.695658 33.621324 1.679537
2004-08-16 07:40:36 51°18.803 2°51.979 20.621172 4.695236 33.612968 1.679537
2004-08-16 07:40:42 51°18.81 2°52.009 20.626707 4.695341 33.609951 1.645828
2004-08-16 07:40:48 51°18.817 2°52.04 20.626707 4.695341 33.609951 1.645828
2004-08-16 07:40:53 51°18.822 2°52.065 20.630076 4.694919 33.602703 1.645828
2004-08-16 07:40:57 51°18.827 2°52.085 20.632803 4.69513 33.599982 1.780665
2004-08-16 07:41:02 51°18.833 2°52.111 20.636332 4.694813 33.595238 1.679537
2004-08-16 07:41:07 51°18.839 2°52.136 20.636412 4.694708 33.591083 1.645828
2004-08-16 07:41:13 51°18.846 2°52.167 20.6395 4.693969 33.582406 1.679537
2004-08-16 07:41:17 51°18.851 2°52.187 20.6395 4.693969 33.582406 1.679537
2004-08-16 07:41:21 51°18.855 2°52.207 20.64343 4.693547 33.575166 1.746956
2004-08-16 07:41:27 51°18.862 2°52.238 20.644232 4.69302 33.568735 1.645828
2004-08-16 07:41:33 51°18.87 2°52.268 20.646156 4.692703 33.563444 1.713247
2004-08-16 07:41:36 51°18.873 2°52.283 20.64752 4.692492 33.559551 1.645828
2004-08-16 07:41:40 51°18.879 2°52.303 20.648081 4.692387 33.557054 1.679537
2004-08-16 07:41:48 51°18.888 2°52.343 20.648081 4.692387 33.557054 1.679537
2004-08-16 07:41:52 51°18.893 2°52.363 20.64768 4.691015 33.542763 1.713247
2004-08-16 07:41:56 51°18.898 2°52.383 20.649123 4.691331 33.544198 1.612118
2004-08-16 07:42:00 51°18.903 2°52.404 20.650567 4.690698 33.538027 1.645828
2004-08-16 07:42:08 51°18.912 2°52.444 20.651649 4.690276 33.532996 1.578409
2004-08-16 07:42:12 51°18.917 2°52.464 20.651288 4.689854 33.529066 1.612118
2004-08-16 07:42:16 51°18.921 2°52.484 20.651288 4.689854 33.529066 1.612118
2004-08-16 07:42:20 51°18.926 2°52.505 20.652171 4.689432 33.524586 1.645828
2004-08-16 07:42:28 51°18.936 2°52.545 20.65181 4.688799 33.520065 1.645828
2004-08-16 07:42:33 51°18.942 2°52.57 20.651489 4.688166 33.513896 1.612118
2004-08-16 07:42:36 51°18.945 2°52.585 20.649364 4.687428 33.506882 1.679537
2004-08-16 07:42:41 51°18.951 2°52.61 20.648442 4.686795 33.501812 1.645828
2004-08-16 07:42:47 51°18.959 2°52.64 20.648442 4.686795 33.501812 1.645828
2004-08-16 07:42:51 51°18.963 2°52.66 20.647319 4.686478 33.498728 1.746956
2004-08-16 07:42:56 51°18.97 2°52.685 20.64359 4.685634 33.491969 1.612118
2004-08-16 07:43:00 51°18.974 2°52.705 20.64367 4.684896 33.486055 1.679537
2004-08-16 07:43:08 51°18.984 2°52.746 20.642026 4.682997 33.472495 1.645828
2004-08-16 07:43:12 51°18.989 2°52.766 20.642949 4.680887 33.45505 1.612118
2004-08-16 07:43:16 51°18.994 2°52.785 20.642949 4.680887 33.45505 1.612118
2004-08-16 07:43:20 51°18.998 2°52.806 20.641986 4.678355 33.435873 1.679537
2004-08-16 07:43:28 51°19.008 2°52.845 20.642588 4.677827 33.433294 1.578409
2004-08-16 07:43:32 51°19.013 2°52.866 20.640663 4.675929 33.418637 1.5447
2004-08-16 07:43:36 51°19.017 2°52.886 20.63946 4.675507 33.415807 1.645828
2004-08-16 07:43:40 51°19.022 2°52.906 20.639901 4.674346 33.407063 1.578409
2004-08-16 07:43:47 51°19.031 2°52.941 20.639901 4.674346 33.407063 1.578409
2004-08-16 07:43:53 51°19.038 2°52.971 20.640463 4.673608 33.401698 1.679537
2004-08-16 07:43:56 51°19.042 2°52.986 20.639901 4.672553 33.3938 1.645828
2004-08-16 07:44:00 51°19.047 2°53.006 20.641184 4.671814 33.388982 1.612118
2004-08-16 07:44:08 51°19.057 2°53.046 20.640222 4.670759 33.379989 1.612118
2004-08-16 07:44:12 51°19.062 2°53.066 20.641345 4.669282 33.369259 1.612118
2004-08-16 07:44:16 51°19.067 2°53.085 20.641345 4.669282 33.369259 1.612118
2004-08-16 07:44:20 51°19.072 2°53.106 20.641064 4.668122 33.359422 1.713247
2004-08-16 07:44:27 51°19.081 2°53.14 20.643269 4.667489 33.354902 1.578409
2004-08-16 07:44:31 51°19.087 2°53.16 20.643711 4.666012 33.342532 1.645828
2004-08-16 07:44:36 51°19.093 2°53.185 20.642868 4.665484 33.337763 1.578409
2004-08-16 07:44:45 51°19.104 2°53.23 20.64367 4.664324 33.327928 1.578409
2004-08-16 07:44:48 51°19.108 2°53.245 20.644713 4.663796 33.323706 1.578409
2004-08-16 07:44:56 51°19.118 2°53.285 20.646718 4.663374 33.320329 1.612118
2004-08-16 07:45:00 51°19.123 2°53.305 20.646758 4.662319 33.310247 1.5447
2004-08-16 07:45:04 51°19.128 2°53.325 20.648602 4.662003 33.307168 1.679537
2004-08-16 07:45:11 51°19.137 2°53.359 20.648602 4.662003 33.307168 1.679537
2004-08-16 07:45:16 51°19.143 2°53.385 20.649364 4.66137 33.30101 1.645828
2004-08-16 07:45:21 51°19.15 2°53.41 20.64748 4.660737 33.295399 1.612118
2004-08-16 07:45:26 51°19.156 2°53.435 20.647319 4.660526 33.292619 1.578409
2004-08-16 07:45:31 51°19.162 2°53.46 20.64776 4.660315 33.288748 1.612118
2004-08-16 07:45:36 51°19.168 2°53.485 20.650286 4.659576 33.282839 1.612118
2004-08-16 07:45:41 51°19.174 2°53.51 20.650286 4.659576 33.282839 1.612118
2004-08-16 07:45:47 51°19.181 2°53.541 20.651208 4.659365 33.281697 1.578409
2004-08-16 07:45:52 51°19.188 2°53.566 20.650888 4.659998 33.287307 1.645828
2004-08-16 07:45:56 51°19.193 2°53.586 20.65189 4.659893 33.287009 1.679537
2004-08-16 07:46:02 51°19.2 2°53.616 20.651329 4.659365 33.282788 1.679537
2004-08-16 07:46:04 51°19.203 2°53.627 20.649805 4.66042 33.290683 1.612118
2004-08-16 07:46:10 51°19.21 2°53.657 20.649805 4.66042 33.290683 1.612118
2004-08-16 07:46:20 51°19.223 2°53.707 20.653494 4.658627 33.275789 1.612118
2004-08-16 07:46:28 51°19.234 2°53.747 20.652251 4.658521 33.273854 1.679537
2004-08-16 07:46:33 51°19.24 2°53.772 20.649685 4.659049 33.278074 1.679537
2004-08-16 07:46:37 51°19.245 2°53.792 20.64752 4.658943 33.276684 1.645828
2004-08-16 07:46:40 51°19.249 2°53.807 20.646477 4.659049 33.277528 1.612118
2004-08-16 07:46:47 51°19.258 2°53.841 20.646477 4.659049 33.277528 1.612118
2004-08-16 07:46:53 51°19.266 2°53.871 20.646076 4.65926 33.278671 1.679537
2004-08-16 07:46:56 51°19.269 2°53.887 20.643871 4.658943 33.276684 1.746956
2004-08-16 07:47:01 51°19.275 2°53.912 20.63946 4.659682 33.283683 1.814375
2004-08-16 07:47:07 51°19.281 2°53.943 20.635731 4.659998 33.287307 1.679537
2004-08-16 07:47:13 51°19.288 2°53.973 20.630517 4.660209 33.290087 1.713247
2004-08-16 07:47:15 51°19.29 2°53.983 20.630517 4.660209 33.290087 1.713247
2004-08-16 07:47:20 51°19.295 2°54.009 20.613752 4.660631 33.295101 1.814375
2004-08-16 07:47:27 51°19.303 2°54.044 20.609499 4.660737 33.297583 1.746956
2004-08-16 07:47:29 51°19.305 2°54.055 20.612187 4.66137 33.304287 1.713247
2004-08-16 07:47:43 51°19.32 2°54.126 20.621614 4.659788 33.299814 1.713247
2004-08-16 07:47:47 51°19.324 2°54.146 20.621614 4.659788 33.299814 1.713247
2004-08-16 07:47:52 51°19.329 2°54.171 20.631079 4.658733 33.296285 1.645828
2004-08-16 07:47:56 51°19.334 2°54.192 20.630477 4.654935 33.269705 1.679537
2004-08-16 07:48:00 51°19.338 2°54.212 20.630156 4.651875 33.247398 1.645828
2004-08-16 07:48:07 51°19.346 2°54.246 20.633966 4.648078 33.216454 1.477281
2004-08-16 07:48:13 51°19.353 2°54.276 20.635209 4.644069 33.18056 1.443571
2004-08-16 07:48:16 51°19.356 2°54.291 20.635209 4.644069 33.18056 1.443571
2004-08-16 07:48:21 51°19.361 2°54.316 20.63168 4.638372 33.131178 1.376153
2004-08-16 07:48:27 51°19.368 2°54.347 20.624582 4.639005 33.135154 1.51099
2004-08-16 07:48:33 51°19.374 2°54.377 20.629595 4.638899 33.133767 1.409862
2004-08-16 07:48:37 51°19.378 2°54.397 20.630838 4.641537 33.152144 1.275024
2004-08-16 07:48:42 51°19.384 2°54.422 20.641385 4.640693 33.144307 1.477281
2004-08-16 07:48:47 51°19.389 2°54.447 20.641385 4.640693 33.144307 1.477281
2004-08-16 07:48:53 51°19.396 2°54.477 20.644232 4.642697 33.16197 1.409862
2004-08-16 07:48:57 51°19.4 2°54.497 20.642187 4.645018 33.182713 1.342443
2004-08-16 07:49:02 51°19.406 2°54.522 20.63946 4.645546 33.186389 1.409862
2004-08-16 07:49:07 51°19.411 2°54.547 20.663756 4.643014 33.164502 1.308734
2004-08-16 07:49:13 51°19.418 2°54.577 20.68039 4.639216 33.131407 1.342443
2004-08-16 07:49:17 51°19.423 2°54.596 20.68039 4.639216 33.131407 1.342443
2004-08-16 07:49:21 51°19.427 2°54.616 20.693574 4.636156 33.104227 1.275024
2004-08-16 07:49:28 51°19.436 2°54.651 20.701627 4.635629 33.098924 1.275024
2004-08-16 07:49:36 51°19.446 2°54.69 20.711202 4.622231 32.981556 1.241315
2004-08-16 07:49:44 51°19.456 2°54.729 20.718773 4.609783 32.872435 1.207606
2004-08-16 07:49:49 51°19.462 2°54.754 20.718693 4.599444 32.780793 1.140187
2004-08-16 07:49:53 51°19.466 2°54.774 20.718693 4.599444 32.780793 1.140187
2004-08-16 07:49:56 51°19.47 2°54.788 20.72438 4.591638 32.711028 1.241315
2004-08-16 07:50:04 51°19.479 2°54.828 20.720295 4.588051 32.675478 1.207606
2004-08-16 07:50:08 51°19.483 2°54.848 20.725421 4.583409 32.633679 1.140187
2004-08-16 07:50:13 51°19.489 2°54.873 20.734793 4.578451 32.588845 1.207606
2004-08-16 07:50:17 51°19.493 2°54.893 20.731068 4.575814 32.564644 1.241315
2004-08-16 07:50:22 51°19.498 2°54.918 20.731068 4.575814 32.564644 1.241315
2004-08-16 07:50:27 51°19.504 2°54.943 20.730588 4.575181 32.556941 1.140187
2004-08-16 07:50:31 51°19.508 2°54.963 20.735954 4.57824 32.580769 1.173896
2004-08-16 07:50:37 51°19.515 2°54.993 20.742321 4.579928 32.592079 1.207606
2004-08-16 07:50:41 51°19.519 2°55.012 20.744763 4.578029 32.573762 1.207606
2004-08-16 07:50:48 51°19.528 2°55.047 20.742962 4.579084 32.581629 1.275024
2004-08-16 07:50:53 51°19.534 2°55.071 20.742962 4.579084 32.581629 1.275024
2004-08-16 07:50:57 51°19.538 2°55.09 20.750129 4.578556 32.575298 1.241315
2004-08-16 07:51:04 51°19.547 2°55.124 20.753492 4.575286 32.546603 1.106477
2004-08-16 07:51:08 51°19.551 2°55.144 20.746365 4.573071 32.52578 1.308734
2004-08-16 07:51:11 51°19.555 2°55.159 20.736875 4.572965 32.523346 1.207606
2004-08-16 07:51:16 51°19.56 2°55.183 20.730628 4.573809 32.527935 1.173896
2004-08-16 07:51:24 51°19.569 2°55.223 20.730628 4.573809 32.527935 1.173896
2004-08-16 07:51:28 51°19.573 2°55.243 20.724901 4.57286 32.518254 1.140187
2004-08-16 07:51:31 51°19.576 2°55.258 20.723339 4.571066 32.502923 1.173896
2004-08-16 07:51:36 51°19.581 2°55.283 20.726823 4.575497 32.53924 1.140187
2004-08-16 07:51:44 51°19.59 2°55.322 20.731549 4.579822 32.576855 1.140187
2004-08-16 07:51:48 51°19.594 2°55.342 20.736274 4.582881 32.606004 1.173896
2004-08-16 07:51:51 51°19.598 2°55.357 20.736274 4.582881 32.606004 1.173896
2004-08-16 07:51:57 51°19.605 2°55.386 20.736314 4.580561 32.591257 1.173896
2004-08-16 07:52:04 51°19.613 2°55.421 20.739358 4.584464 32.62447 1.207606
2004-08-16 07:52:08 51°19.617 2°55.44 20.738997 4.581721 32.602095 1.207606
2004-08-16 07:52:11 51°19.62 2°55.455 20.743242 4.578556 32.574766 1.241315
2004-08-16 07:52:17 51°19.627 2°55.485 20.744323 4.573915 32.535688 1.241315
2004-08-16 07:52:24 51°19.635 2°55.519 20.744323 4.573915 32.535688 1.241315
2004-08-16 07:52:28 51°19.639 2°55.539 20.743082 4.573387 32.530426 1.173896
2004-08-16 07:52:31 51°19.642 2°55.554 20.744403 4.571278 32.513103 1.207606
2004-08-16 07:52:36 51°19.647 2°55.579 20.743802 4.569695 32.498916 1.173896
2004-08-16 07:52:44 51°19.655 2°55.62 20.745764 4.568957 32.491978 1.173896
2004-08-16 07:52:48 51°19.658 2°55.64 20.745004 4.568324 32.48588 1.140187
2004-08-16 07:52:51 51°19.661 2°55.655 20.745004 4.568324 32.48588 1.140187
2004-08-16 07:52:56 51°19.666 2°55.68 20.743402 4.568113 32.484732 1.241315
2004-08-16 07:53:03 51°19.673 2°55.715 20.745164 4.565898 32.466046 1.173896
2004-08-16 07:53:08 51°19.679 2°55.74 20.748127 4.565054 32.459332 1.207606
2004-08-16 07:53:13 51°19.684 2°55.765 20.752771 4.564632 32.455975 1.342443
2004-08-16 07:53:18 51°19.689 2°55.79 20.755974 4.563155 32.444226 1.106477
2004-08-16 07:53:24 51°19.695 2°55.82 20.755974 4.563155 32.444226 1.106477
2004-08-16 07:53:29 51°19.7 2°55.845 20.759817 4.565581 32.462997 1.207606
2004-08-16 07:53:42 51°19.713 2°55.91 20.757455 4.562838 32.436938 1.207606
2004-08-16 07:53:48 51°19.72 2°55.94 20.757455 4.562838 32.436938 1.207606
2004-08-16 07:53:53 51°19.725 2°55.964 20.757295 4.561361 32.423073 1.207606
2004-08-16 07:53:58 51°19.73 2°55.989 20.756374 4.559885 32.40974 1.173896
2004-08-16 07:54:00 51°19.733 2°55.999 20.756534 4.560096 32.409829 1.207606
2004-08-16 07:54:08 51°19.741 2°56.04 20.758055 4.565159 32.450625 1.173896
2004-08-16 07:54:13 51°19.746 2°56.065 20.761458 4.566108 32.457646 1.072768
2004-08-16 07:54:16 51°19.749 2°56.08 20.761458 4.566108 32.457646 1.072768
2004-08-16 07:54:20 51°19.752 2°56.1 20.760017 4.566214 32.459015 1.275024
2004-08-16 07:54:27 51°19.759 2°56.135 20.758416 4.565686 32.45482 1.342443
2004-08-16 07:54:33 51°19.765 2°56.166 20.757615 4.564632 32.4459 1.106477
2004-08-16 07:54:36 51°19.768 2°56.181 20.760137 4.563366 32.434774 1.140187
2004-08-16 07:54:41 51°19.773 2°56.206 20.757895 4.562311 32.426915 1.173896
2004-08-16 07:54:47 51°19.779 2°56.236 20.757895 4.562311 32.426915 1.173896
2004-08-16 07:54:51 51°19.782 2°56.257 20.759256 4.562733 32.43027 1.207606
2004-08-16 07:54:57 51°19.788 2°56.287 20.757895 4.563682 32.43676 1.173896
2004-08-16 07:55:01 51°19.792 2°56.307 20.757615 4.564315 32.441264 1.275024
2004-08-16 07:55:07 51°19.797 2°56.338 20.757535 4.565053 32.447136 1.207606
2004-08-16 07:55:13 51°19.803 2°56.368 20.757215 4.565686 32.453229 1.173896
2004-08-16 07:55:16 51°19.806 2°56.383 20.757215 4.565686 32.453229 1.173896
2004-08-16 07:55:20 51°19.81 2°56.403 20.757815 4.566214 32.456364 1.173896
2004-08-16 07:55:27 51°19.818 2°56.439 20.755293 4.566319 32.458793 1.241315
2004-08-16 07:55:31 51°19.822 2°56.459 20.757015 4.565686 32.45376 1.342443
2004-08-16 07:55:37 51°19.828 2°56.489 20.757895 4.565264 32.450404 1.241315
2004-08-16 07:55:42 51°19.833 2°56.514 20.760818 4.564104 32.441176 1.207606
2004-08-16 07:55:48 51°19.838 2°56.545 20.760818 4.564104 32.441176 1.207606
2004-08-16 07:55:51 51°19.841 2°56.56 20.758576 4.562944 32.432478 1.173896
2004-08-16 07:55:56 51°19.845 2°56.585 20.759817 4.561361 32.419895 1.241315
2004-08-16 07:56:00 51°19.849 2°56.606 20.760497 4.559674 32.407003 1.241315
2004-08-16 07:56:08 51°19.857 2°56.646 20.759136 4.557775 32.391376 1.207606
2004-08-16 07:56:12 51°19.86 2°56.666 20.759857 4.556509 32.380783 1.241315
2004-08-16 07:56:16 51°19.864 2°56.686 20.759857 4.556509 32.380783 1.241315
2004-08-16 07:56:23 51°19.871 2°56.722 20.760818 4.555032 32.367984 1.241315
2004-08-16 07:56:28 51°19.876 2°56.747 20.762299 4.553661 32.356555 1.241315
2004-08-16 07:56:31 51°19.88 2°56.762 20.760938 4.5525 32.346802 1.376153
2004-08-16 07:56:36 51°19.885 2°56.787 20.761418 4.550391 32.333202 1.207606
2004-08-16 07:56:44 51°19.893 2°56.827 20.761578 4.549758 32.326059 1.173896
2004-08-16 07:56:51 51°19.9 2°56.862 20.761938 4.548387 32.314632 1.173896
2004-08-16 07:56:56 51°19.905 2°56.887 20.761338 4.547437 32.306031 1.207606
2004-08-16 07:57:01 51°19.91 2°56.912 20.761018 4.54691 32.302368 1.275024
2004-08-16 07:57:04 51°19.912 2°56.928 20.760137 4.546382 32.297649 1.207606
2004-08-16 07:57:11 51°19.919 2°56.963 20.760137 4.546382 32.297649 1.207606
2004-08-16 07:57:16 51°19.924 2°56.988 20.760337 4.546066 32.295134 1.241315
2004-08-16 07:57:20 51°19.929 2°57.008 20.760177 4.54596 32.293241 1.173896
2004-08-16 07:57:24 51°19.933 2°57.027 20.762699 4.546277 32.296283 1.241315
2004-08-16 07:57:31 51°19.941 2°57.062 20.761738 4.546066 32.295134 1.140187
2004-08-16 07:57:36 51°19.946 2°57.087 20.762259 4.546066 32.295134 1.207606
2004-08-16 07:57:41 51°19.951 2°57.112 20.762259 4.546066 32.295134 1.207606
2004-08-16 07:57:46 51°19.956 2°57.137 20.76362 4.546171 32.296499 1.275024
2004-08-16 07:57:52 51°19.963 2°57.167 20.762299 4.546171 32.295972 1.275024
2004-08-16 07:57:55 51°19.966 2°57.182 20.762859 4.545433 32.289577 1.308734
2004-08-16 07:58:01 51°19.972 2°57.212 20.760097 4.544378 32.280667 1.342443
2004-08-16 07:58:05 51°19.976 2°57.232 20.760497 4.543218 32.271448 1.376153
2004-08-16 07:58:11 51°19.982 2°57.262 20.760497 4.543218 32.271448 1.376153
2004-08-16 07:58:17 51°19.988 2°57.292 20.761458 4.541635 32.258349 1.173896
2004-08-16 07:58:20 51°19.991 2°57.306 20.762939 4.539737 32.243264 1.241315
2004-08-16 07:58:25 51°19.996 2°57.332 20.7637 4.538049 32.230382 1.275024
2004-08-16 07:58:31 51°20.002 2°57.361 20.76414 4.537838 32.228707 1.342443
2004-08-16 07:58:37 51°20.008 2°57.391 20.76414 4.536572 32.219703 1.241315
2004-08-16 07:58:40 51°20.011 2°57.406 20.76414 4.536572 32.219703 1.241315
2004-08-16 07:58:47 51°20.019 2°57.441 20.764901 4.535201 32.208284 1.443571
2004-08-16 07:58:52 51°20.024 2°57.465 20.765541 4.534779 32.203881 1.308734
2004-08-16 07:58:56 51°20.028 2°57.485 20.767422 4.534568 32.201679 1.241315
2004-08-16 07:59:01 51°20.033 2°57.51 20.768823 4.534146 32.197802 1.241315
2004-08-16 07:59:05 51°20.037 2°57.53 20.769784 4.533408 32.191412 1.308734
2004-08-16 07:59:11 51°20.043 2°57.56 20.769784 4.533408 32.191412 1.308734
2004-08-16 07:59:17 51°20.049 2°57.59 20.770544 4.532669 32.185547 1.275024
2004-08-16 07:59:20 51°20.052 2°57.605 20.772145 4.531825 32.17832 1.342443
2004-08-16 07:59:26 51°20.058 2°57.635 20.774667 4.531614 32.176119 1.443571
2004-08-16 07:59:31 51°20.062 2°57.66 20.775587 4.531403 32.173918 1.275024
2004-08-16 07:59:36 51°20.067 2°57.685 20.775587 4.531087 32.170355 1.342443
2004-08-16 07:59:41 51°20.073 2°57.71 20.775587 4.531087 32.170355 1.342443
2004-08-16 07:59:46 51°20.078 2°57.735 20.777789 4.531403 32.172342 1.443571
2004-08-16 07:59:51 51°20.083 2°57.759 20.779189 4.531931 32.174429 1.342443
2004-08-16 07:59:56 51°20.088 2°57.785 20.78047 4.532142 32.175579 1.275024
2004-08-16 08:00:01 51°20.093 2°57.809 20.78031 4.531931 32.171803 1.443571
2004-08-16 08:00:04 51°20.095 2°57.824 20.78091 4.530981 32.16479 1.342443
2004-08-16 08:00:12 51°20.103 2°57.864 20.78091 4.530981 32.16479 1.342443
2004-08-16 08:00:17 51°20.108 2°57.889 20.781911 4.530032 32.156203 1.342443
2004-08-16 08:00:21 51°20.112 2°57.909 20.781631 4.528661 32.144267 1.443571
2004-08-16 08:00:25 51°20.115 2°57.93 20.781751 4.527817 32.136519 1.376153
2004-08-16 08:00:31 51°20.121 2°57.96 20.782391 4.527395 32.132121 1.308734
2004-08-16 08:00:37 51°20.127 2°57.99 20.781671 4.525285 32.115376 1.376153
2004-08-16 08:00:41 51°20.13 2°58.01 20.781671 4.525285 32.115376 1.376153
2004-08-16 08:00:46 51°20.135 2°58.035 20.782231 4.524547 32.107943 1.477281
2004-08-16 08:00:52 51°20.141 2°58.065 20.782391 4.52307 32.096747 1.409862
2004-08-16 08:00:56 51°20.145 2°58.085 20.782831 4.522648 32.093923 1.443571
2004-08-16 08:01:00 51°20.149 2°58.104 20.782591 4.521488 32.084191 1.477281
2004-08-16 08:01:07 51°20.156 2°58.139 20.783071 4.520538 32.076657 1.443571
2004-08-16 08:01:12 51°20.161 2°58.164 20.783071 4.520538 32.076657 1.443571
2004-08-16 08:01:16 51°20.165 2°58.184 20.783752 4.5198 32.070798 1.443571
2004-08-16 08:01:21 51°20.17 2°58.209 20.784592 4.518851 32.063265 1.477281
2004-08-16 08:01:25 51°20.173 2°58.229 20.786513 4.517901 32.055733 1.477281
2004-08-16 08:01:32 51°20.18 2°58.264 20.787033 4.517163 32.048828 1.443571
2004-08-16 08:01:36 51°20.184 2°58.284 20.789314 4.516002 32.039622 1.5447
2004-08-16 08:01:40 51°20.187 2°58.305 20.789314 4.516002 32.039622 1.5447
2004-08-16 08:01:44 51°20.191 2°58.325 20.789754 4.515264 32.033764 1.645828
2004-08-16 08:01:52 51°20.198 2°58.365 20.789994 4.513682 32.02069 1.645828
2004-08-16 08:01:57 51°20.203 2°58.39 20.791234 4.512838 32.012951 1.612118
2004-08-16 08:02:01 51°20.206 2°58.41 20.794436 4.511045 31.998205 1.51099
2004-08-16 08:02:05 51°20.21 2°58.43 20.795276 4.510095 31.988587 1.51099
2004-08-16 08:02:12 51°20.217 2°58.464 20.795276 4.510095 31.988587 1.51099
2004-08-16 08:02:17 51°20.222 2°58.49 20.795396 4.509462 31.983046 1.51099
2004-08-16 08:02:20 51°20.225 2°58.504 20.796556 4.509252 31.981895 1.578409
2004-08-16 08:02:24 51°20.229 2°58.524 20.796236 4.508408 31.974681 1.51099
2004-08-16 08:02:33 51°20.238 2°58.569 20.796796 4.508091 31.970085 1.578409
2004-08-16 08:02:40 51°20.245 2°58.604 20.798157 4.507564 31.96486 1.578409
2004-08-16 08:02:45 51°20.25 2°58.629 20.799997 4.506825 31.958484 1.5447
2004-08-16 08:02:49 51°20.254 2°58.649 20.798477 4.505665 31.948242 1.645828
2004-08-16 08:02:52 51°20.256 2°58.664 20.799917 4.504294 31.93737 1.578409
2004-08-16 08:03:00 51°20.263 2°58.705 20.799917 4.504294 31.93737 1.578409
2004-08-16 08:03:05 51°20.268 2°58.73 20.799837 4.503239 31.927966 1.5447
2004-08-16 08:03:08 51°20.271 2°58.745 20.800877 4.502395 31.921798 1.645828
2004-08-16 08:03:11 51°20.273 2°58.76 20.801197 4.501868 31.916055 1.443571
2004-08-16 08:03:20 51°20.282 2°58.805 20.801677 4.500707 31.906338 1.51099
2004-08-16 08:03:24 51°20.285 2°58.825 20.802717 4.500285 31.903514 1.578409
2004-08-16 08:03:29 51°20.29 2°58.85 20.802717 4.500285 31.903514 1.578409
2004-08-16 08:03:34 51°20.295 2°58.875 20.803038 4.499653 31.897457 1.51099
2004-08-16 08:03:39 51°20.3 2°58.9 20.804558 4.499547 31.896101 1.5447
2004-08-16 08:03:45 51°20.306 2°58.93 20.805078 4.498703 31.889413 1.612118
2004-08-16 08:03:49 51°20.31 2°58.95 20.805558 4.498387 31.886905 1.612118
2004-08-16 08:03:53 51°20.313 2°58.97 20.806478 4.49807 31.884397 1.5447
2004-08-16 08:04:00 51°20.32 2°59.005 20.806478 4.49807 31.884397 1.5447
2004-08-16 08:04:04 51°20.324 2°59.025 20.806998 4.497437 31.878342 1.578409
2004-08-16 08:04:08 51°20.328 2°59.045 20.806998 4.497015 31.874998 1.5447
2004-08-16 08:04:11 51°20.331 2°59.06 20.808198 4.496172 31.867272 1.612118
2004-08-16 08:04:20 51°20.339 2°59.105 20.808358 4.495855 31.863725 1.645828
2004-08-16 08:04:25 51°20.344 2°59.13 20.808358 4.495539 31.861218 1.645828
2004-08-16 08:04:29 51°20.348 2°59.15 20.808358 4.495539 31.861218 1.645828
2004-08-16 08:04:33 51°20.352 2°59.17 20.809518 4.4948 31.854328 1.578409
2004-08-16 08:04:39 51°20.357 2°59.2 20.809958 4.494062 31.847959 1.5447
2004-08-16 08:04:45 51°20.363 2°59.23 20.810038 4.493324 31.842109 1.679537
2004-08-16 08:04:49 51°20.367 2°59.25 20.811959 4.492374 31.834069 1.578409
2004-08-16 08:04:54 51°20.371 2°59.275 20.812199 4.491636 31.827182 1.612118
2004-08-16 08:05:05 51°20.382 2°59.33 20.813239 4.490792 31.820497 1.645828
2004-08-16 08:05:12 51°20.389 2°59.365 20.813239 4.490792 31.820497 1.645828
2004-08-16 08:05:16 51°20.393 2°59.385 20.812319 4.490265 31.815282 1.612118
2004-08-16 08:05:20 51°20.397 2°59.405 20.811358 4.489737 31.811105 1.679537
2004-08-16 08:05:25 51°20.402 2°59.429 20.811719 4.489315 31.807244 1.645828
2004-08-16 08:05:32 51°20.409 2°59.464 20.813079 4.488682 31.801194 1.645828
2004-08-16 08:05:36 51°20.413 2°59.484 20.815159 4.482037 31.749088 1.612118
2004-08-16 08:05:41 51°20.418 2°59.51 20.815159 4.482037 31.749088 1.612118
2004-08-16 08:05:45 51°20.422 2°59.529 20.811599 4.482987 31.756087 1.645828
2004-08-16 08:05:52 51°20.429 2°59.564 20.813239 4.482354 31.751076 1.679537
2004-08-16 08:05:57 51°20.434 2°59.589 20.813239 4.481615 31.744712 1.612118
2004-08-16 08:06:01 51°20.438 2°59.61 20.811719 4.48151 31.743877 1.612118
2004-08-16 08:06:05 51°20.442 2°59.63 20.812639 4.481826 31.746382 1.679537
2004-08-16 08:06:11 51°20.447 2°59.66 20.812639 4.481826 31.746382 1.679537
2004-08-16 08:06:17 51°20.453 2°59.691 20.814479 4.480982 31.739701 1.612118
2004-08-16 08:06:21 51°20.457 2°59.711 20.815079 4.480244 31.733855 1.679537
2004-08-16 08:06:24 51°20.46 2°59.726 20.814239 4.479084 31.724669 1.578409
2004-08-16 08:06:32 51°20.467 2°59.766 20.814679 4.480771 31.736996 1.645828
2004-08-16 08:06:36 51°20.471 2°59.786 20.814919 4.479506 31.728009 1.645828
2004-08-16 08:06:40 51°20.475 2°59.807 20.814919 4.479506 31.728009 1.645828
2004-08-16 08:06:45 51°20.479 2°59.832 20.815999 4.479928 31.730315 1.5447
2004-08-16 08:06:52 51°20.486 2°59.867 20.815879 4.478662 31.720812 1.679537
2004-08-16 08:06:56 51°20.49 2°59.888 20.816439 4.480139 31.731985 1.679537
2004-08-16 08:07:00 51°20.494 2°59.908 20.816759 4.478556 31.719977 1.713247
2004-08-16 08:07:04 51°20.498 2°59.928 20.818879 4.479189 31.72447 1.713247
2004-08-16 08:07:11 51°20.505 2°59.963 20.818879 4.479189 31.72447 1.713247
2004-08-16 08:07:16 51°20.51 2°59.988 20.820198 4.479717 31.728645 1.746956
2004-08-16 08:07:21 51°20.515 3°0.013 20.820558 4.479822 31.728963 1.713247
2004-08-16 08:07:26 51°20.52 3°0.038 20.819798 4.4794 31.724588 1.746956
2004-08-16 08:07:31 51°20.524 3°0.063 20.819638 4.4794 31.724588 1.780665
2004-08-16 08:07:36 51°20.529 3°0.089 20.818119 4.479084 31.721049 1.814375
2004-08-16 08:07:41 51°20.533 3°0.114 20.818119 4.479084 31.721049 1.814375
2004-08-16 08:07:46 51°20.538 3°0.14 20.819958 4.479189 31.72085 1.746956
2004-08-16 08:07:51 51°20.542 3°0.165 20.819878 4.479295 31.721685 1.679537
2004-08-16 08:07:56 51°20.547 3°0.19 20.818119 4.478767 31.716993 1.679537
2004-08-16 08:08:02 51°20.552 3°0.221 20.819878 4.478556 31.71584 1.645828
2004-08-16 08:08:06 51°20.556 3°0.241 20.818119 4.477607 31.708326 1.612118
2004-08-16 08:08:11 51°20.562 3°0.266 20.818119 4.477607 31.708326 1.612118
2004-08-16 08:08:17 51°20.568 3°0.297 20.821118 4.477712 31.709161 1.612118
2004-08-16 08:08:20 51°20.571 3°0.312 20.822318 4.47824 31.712302 1.645828
2004-08-16 08:08:25 51°20.576 3°0.337 20.819878 4.477818 31.708962 1.578409
2004-08-16 08:08:32 51°20.584 3°0.372 20.820198 4.477607 31.707809 1.578409
2004-08-16 08:08:36 51°20.588 3°0.392 20.821238 4.476236 31.697472 1.578409
2004-08-16 08:08:41 51°20.592 3°0.418 20.821238 4.476236 31.697472 1.578409
2004-08-16 08:08:46 51°20.597 3°0.443 20.821238 4.476447 31.698109 1.612118
2004-08-16 08:08:52 51°20.602 3°0.474 20.821318 4.477501 31.705941 1.578409
2004-08-16 08:08:56 51°20.606 3°0.494 20.822238 4.476763 31.700613 1.645828
2004-08-16 08:09:00 51°20.609 3°0.515 20.823478 4.477291 31.703754 1.612118
2004-08-16 08:09:05 51°20.613 3°0.54 20.823638 4.476763 31.69958 1.679537
2004-08-16 08:09:09 51°20.617 3°0.561 20.823638 4.476763 31.69958 1.679537
2004-08-16 08:09:17 51°20.624 3°0.601 20.825798 4.476869 31.700931 1.713247
2004-08-16 08:09:21 51°20.628 3°0.621 20.827957 4.476763 31.699063 1.848084
2004-08-16 08:09:25 51°20.632 3°0.641 20.826558 4.476763 31.699063 1.814375
2004-08-16 08:09:32 51°20.639 3°0.676 20.826438 4.474759 31.68217 1.746956
2004-08-16 08:09:37 51°20.644 3°0.702 20.828557 4.476552 31.695844 1.915503
2004-08-16 08:09:40 51°20.647 3°0.716 20.828557 4.476552 31.695844 1.915503
2004-08-16 08:09:45 51°20.652 3°0.742 20.828877 4.476447 31.695009 1.949212